QFA63 FAOR-YSSY
Flight info
| Callsign | QFA63 |
|---|---|
| Flight time | N/A |
| Altitude | 35000 |
| Route | APDAK1B APDAK UQ48 APMAT DCT 3139S03249E 3305S03404E 3558S03720E 3901S04139E 4207S04637E 4459S05133E/N0489F360 4745S05633E 5036S06233E/N0478F370 5256S06914E 5358S07500E 5404S07544E 5451S08409E 5458S08816E 5438S09747E/N0493F390 5402S10424E 5305S11152E 5135S12053E 4920S12933E 4701S13634E 4439S14119E 4046S14617E DCT MAKRL/N0488F400 J163 CB/N0489F410 W423 CULIN Y59 RIVET |
| Aircraft | A388/J-SADE2E3FGHIJ3J4J5M1RWXY/LB1D1 |
Departure
| Time | N/A |
|---|---|
| Airport | O.R. Tambo International Airport (FAOR) |
Arrival
| Time | 2026-05-04 07:12 |
|---|---|
| Airport | Sydney Kingsford Smith International Airport (YSSY) |
| Time | Latitude | Longitude | Altitude | Speed | Heading |
|---|---|---|---|---|---|
| 2026-05-03 20:15 | -29.71724 | 31.54143 | 35094 ft | 522 kts | 153° |
| 2026-05-03 20:15 | -29.78050 | 31.58225 | 35095 ft | 523 kts | 153° |
| 2026-05-03 20:16 | -29.84361 | 31.62303 | 35097 ft | 523 kts | 153° |
| 2026-05-03 20:16 | -29.90719 | 31.66417 | 35098 ft | 523 kts | 153° |
| 2026-05-03 20:17 | -29.97065 | 31.70529 | 35101 ft | 523 kts | 153° |
| 2026-05-03 20:17 | -30.03430 | 31.74661 | 35096 ft | 524 kts | 153° |
| 2026-05-03 20:18 | -30.09792 | 31.78796 | 35100 ft | 524 kts | 153° |
| 2026-05-03 20:18 | -30.16150 | 31.82935 | 35098 ft | 524 kts | 153° |
| 2026-05-03 20:19 | -30.22449 | 31.87042 | 35101 ft | 524 kts | 153° |
| 2026-05-03 20:19 | -30.27741 | 31.90496 | 35100 ft | 524 kts | 153° |
| 2026-05-03 20:20 | -30.34129 | 31.94672 | 35102 ft | 525 kts | 153° |
| 2026-05-03 20:20 | -30.40477 | 31.98828 | 35107 ft | 525 kts | 153° |
| 2026-05-03 20:21 | -30.46802 | 32.02976 | 35109 ft | 525 kts | 153° |
| 2026-05-03 20:21 | -30.53163 | 32.07153 | 35111 ft | 525 kts | 153° |
| 2026-05-03 20:22 | -30.59504 | 32.11323 | 35105 ft | 525 kts | 153° |
| 2026-05-03 20:22 | -30.65873 | 32.15518 | 35106 ft | 526 kts | 153° |
| 2026-05-03 20:23 | -30.72218 | 32.19704 | 35105 ft | 526 kts | 153° |
| 2026-05-03 20:23 | -30.78618 | 32.23932 | 35110 ft | 526 kts | 153° |
| 2026-05-03 20:24 | -30.85000 | 32.28155 | 35105 ft | 526 kts | 153° |
| 2026-05-03 20:24 | -30.91339 | 32.32357 | 35112 ft | 527 kts | 153° |
| 2026-05-03 20:25 | -30.97708 | 32.36584 | 35113 ft | 527 kts | 153° |
| 2026-05-03 20:25 | -31.04106 | 32.40838 | 35114 ft | 527 kts | 153° |
| 2026-05-03 20:26 | -31.10445 | 32.45059 | 35113 ft | 527 kts | 153° |
| 2026-05-03 20:26 | -31.16826 | 32.49314 | 35114 ft | 528 kts | 153° |
| 2026-05-03 20:27 | -31.23167 | 32.53549 | 35117 ft | 528 kts | 153° |
| 2026-05-03 20:27 | -31.29524 | 32.57802 | 35121 ft | 528 kts | 153° |
| 2026-05-03 20:28 | -31.35841 | 32.62034 | 35104 ft | 528 kts | 154° |
| 2026-05-03 20:28 | -31.42192 | 32.66297 | 35108 ft | 528 kts | 154° |
| 2026-05-03 20:29 | -31.48593 | 32.70599 | 35110 ft | 529 kts | 154° |
| 2026-05-03 20:29 | -31.54958 | 32.74883 | 35118 ft | 529 kts | 154° |
| 2026-05-03 20:30 | -31.61314 | 32.79167 | 35119 ft | 529 kts | 154° |
| 2026-05-03 20:30 | -31.67574 | 32.83851 | 35122 ft | 533 kts | 146° |
| 2026-05-03 20:31 | -31.73485 | 32.88951 | 35121 ft | 533 kts | 147° |
| 2026-05-03 20:31 | -31.79528 | 32.94107 | 35127 ft | 534 kts | 147° |
| 2026-05-03 20:32 | -31.85535 | 32.99259 | 35127 ft | 534 kts | 147° |
| 2026-05-03 20:32 | -31.91528 | 33.04415 | 35129 ft | 534 kts | 147° |
| 2026-05-03 20:33 | -31.97492 | 33.09554 | 35133 ft | 534 kts | 147° |
| 2026-05-03 20:33 | -32.03536 | 33.14772 | 35135 ft | 534 kts | 147° |
| 2026-05-03 20:34 | -32.09482 | 33.19913 | 35133 ft | 534 kts | 147° |
| 2026-05-03 20:34 | -32.15481 | 33.25109 | 35132 ft | 534 kts | 147° |
| 2026-05-03 20:35 | -32.21506 | 33.30335 | 35134 ft | 534 kts | 147° |
| 2026-05-03 20:35 | -32.27477 | 33.35524 | 35129 ft | 534 kts | 147° |
| 2026-05-03 20:36 | -32.33490 | 33.40757 | 35126 ft | 534 kts | 147° |
| 2026-05-03 20:36 | -32.39426 | 33.45934 | 35125 ft | 534 kts | 147° |
| 2026-05-03 20:37 | -32.45407 | 33.51156 | 35131 ft | 534 kts | 148° |
| 2026-05-03 20:37 | -32.51385 | 33.56386 | 35134 ft | 534 kts | 148° |
| 2026-05-03 20:38 | -32.57395 | 33.61653 | 35133 ft | 535 kts | 148° |
| 2026-05-03 20:38 | -32.63336 | 33.66868 | 35138 ft | 535 kts | 148° |
| 2026-05-03 20:39 | -32.69345 | 33.72152 | 35135 ft | 535 kts | 148° |
| 2026-05-03 20:39 | -32.75306 | 33.77402 | 35136 ft | 536 kts | 148° |
| 2026-05-03 20:40 | -32.81289 | 33.82681 | 35142 ft | 536 kts | 148° |
| 2026-05-03 20:40 | -32.87284 | 33.87979 | 35140 ft | 537 kts | 148° |
| 2026-05-03 20:41 | -32.93290 | 33.93297 | 35139 ft | 537 kts | 148° |
| 2026-05-03 20:41 | -32.99292 | 33.98620 | 35140 ft | 537 kts | 148° |
| 2026-05-03 20:42 | -33.05294 | 34.03952 | 35145 ft | 537 kts | 148° |
| 2026-05-03 20:42 | -33.11071 | 34.09613 | 35144 ft | 542 kts | 141° |
| 2026-05-03 20:43 | -33.16652 | 34.15676 | 35145 ft | 542 kts | 142° |
| 2026-05-03 20:43 | -33.22218 | 34.21681 | 35137 ft | 542 kts | 142° |
| 2026-05-03 20:44 | -33.27796 | 34.27720 | 35141 ft | 542 kts | 142° |
| 2026-05-03 20:44 | -33.33368 | 34.33771 | 35147 ft | 543 kts | 142° |
| 2026-05-03 20:45 | -33.38962 | 34.39861 | 35147 ft | 543 kts | 142° |
| 2026-05-03 20:45 | -33.44544 | 34.45949 | 35153 ft | 543 kts | 142° |
| 2026-05-03 20:46 | -33.50126 | 34.52048 | 35155 ft | 543 kts | 142° |
| 2026-05-03 20:46 | -33.55703 | 34.58152 | 35149 ft | 543 kts | 142° |
| 2026-05-03 20:47 | -33.61284 | 34.64272 | 35149 ft | 543 kts | 142° |
| 2026-05-03 20:47 | -33.66842 | 34.70378 | 35152 ft | 543 kts | 142° |
| 2026-05-03 20:48 | -33.72416 | 34.76513 | 35151 ft | 542 kts | 142° |
| 2026-05-03 20:48 | -33.77999 | 34.82669 | 35150 ft | 542 kts | 142° |
| 2026-05-03 20:49 | -33.83552 | 34.88802 | 35150 ft | 542 kts | 142° |
| 2026-05-03 20:49 | -33.89100 | 34.94942 | 35153 ft | 542 kts | 142° |
| 2026-05-03 20:50 | -33.94656 | 35.01103 | 35134 ft | 542 kts | 142° |
| 2026-05-03 20:50 | -34.00184 | 35.07243 | 35136 ft | 542 kts | 142° |
| 2026-05-03 20:51 | -34.05721 | 35.13405 | 35148 ft | 542 kts | 142° |
| 2026-05-03 20:51 | -34.11242 | 35.19561 | 35150 ft | 542 kts | 142° |
| 2026-05-03 20:52 | -34.16764 | 35.25728 | 35157 ft | 542 kts | 142° |
| 2026-05-03 20:52 | -34.22315 | 35.31940 | 35158 ft | 542 kts | 142° |
| 2026-05-03 20:53 | -34.27827 | 35.38122 | 35154 ft | 542 kts | 142° |
| 2026-05-03 20:53 | -34.33332 | 35.44305 | 35156 ft | 542 kts | 142° |
| 2026-05-03 20:54 | -34.38855 | 35.50521 | 35158 ft | 541 kts | 142° |
| 2026-05-03 20:54 | -34.47128 | 35.59853 | 35153 ft | 541 kts | 142° |
| 2026-05-03 20:55 | -34.52631 | 35.66076 | 35152 ft | 541 kts | 142° |
| 2026-05-03 20:55 | -34.58142 | 35.72319 | 35153 ft | 541 kts | 142° |
| 2026-05-03 20:56 | -34.63624 | 35.78542 | 35152 ft | 541 kts | 142° |
| 2026-05-03 20:56 | -34.69150 | 35.84826 | 35155 ft | 542 kts | 142° |
| 2026-05-03 20:57 | -34.74628 | 35.91068 | 35157 ft | 542 kts | 142° |
| 2026-05-03 20:57 | -34.80119 | 35.97336 | 35160 ft | 542 kts | 142° |
| 2026-05-03 20:58 | -34.85576 | 36.03577 | 35159 ft | 542 kts | 142° |
| 2026-05-03 20:58 | -34.91084 | 36.09890 | 35156 ft | 542 kts | 142° |
| 2026-05-03 20:59 | -34.96578 | 36.16198 | 35156 ft | 542 kts | 142° |
| 2026-05-03 20:59 | -35.02049 | 36.22492 | 35167 ft | 541 kts | 142° |
| 2026-05-03 21:00 | -35.05712 | 36.26713 | 35144 ft | 542 kts | 142° |
| 2026-05-03 21:00 | -35.12974 | 36.35097 | 35149 ft | 542 kts | 142° |
| 2026-05-03 21:01 | -35.17557 | 36.40399 | 35151 ft | 542 kts | 142° |
| 2026-05-03 21:01 | -35.23020 | 36.46731 | 35154 ft | 542 kts | 142° |
| 2026-05-03 21:02 | -35.28488 | 36.53080 | 35152 ft | 542 kts | 143° |
| 2026-05-03 21:02 | -35.33970 | 36.59459 | 35155 ft | 542 kts | 143° |
| 2026-05-03 21:03 | -35.39424 | 36.65817 | 35151 ft | 542 kts | 143° |
| 2026-05-03 21:03 | -35.44860 | 36.72167 | 35151 ft | 542 kts | 143° |
| 2026-05-03 21:04 | -35.50314 | 36.78551 | 35150 ft | 542 kts | 143° |
| 2026-05-03 21:04 | -35.55755 | 36.84932 | 35151 ft | 542 kts | 143° |
| 2026-05-03 21:05 | -35.61194 | 36.91323 | 35145 ft | 542 kts | 143° |
| 2026-05-03 21:05 | -35.66631 | 36.97725 | 35144 ft | 542 kts | 143° |
| 2026-05-03 21:06 | -35.72069 | 37.04140 | 35141 ft | 542 kts | 143° |
| 2026-05-03 21:06 | -35.77546 | 37.10615 | 35146 ft | 542 kts | 143° |
| 2026-05-03 21:07 | -35.82945 | 37.17009 | 35141 ft | 542 kts | 143° |
| 2026-05-03 21:07 | -35.88382 | 37.23459 | 35142 ft | 542 kts | 143° |
| 2026-05-03 21:08 | -35.93865 | 37.29974 | 35144 ft | 543 kts | 143° |
| 2026-05-03 21:08 | -35.99115 | 37.36610 | 35139 ft | 547 kts | 139° |
| 2026-05-03 21:09 | -36.04292 | 37.43503 | 35132 ft | 546 kts | 140° |
| 2026-05-03 21:09 | -36.09493 | 37.50388 | 35139 ft | 546 kts | 140° |
| 2026-05-03 21:10 | -36.14631 | 37.57226 | 35137 ft | 547 kts | 140° |
| 2026-05-03 21:10 | -36.19797 | 37.64125 | 35134 ft | 547 kts | 140° |
| 2026-05-03 21:11 | -36.25006 | 37.71102 | 35131 ft | 548 kts | 140° |
| 2026-05-03 21:11 | -36.30161 | 37.78023 | 35115 ft | 548 kts | 140° |
| 2026-05-03 21:12 | -36.35340 | 37.84989 | 35123 ft | 548 kts | 140° |
| 2026-05-03 21:12 | -36.40482 | 37.91921 | 35127 ft | 549 kts | 140° |
| 2026-05-03 21:13 | -36.45687 | 37.98952 | 35125 ft | 549 kts | 140° |
| 2026-05-03 21:13 | -36.50811 | 38.05888 | 35127 ft | 549 kts | 140° |
| 2026-05-03 21:14 | -36.55973 | 38.12893 | 35128 ft | 549 kts | 140° |
| 2026-05-03 21:14 | -36.61159 | 38.19942 | 35128 ft | 550 kts | 140° |
| 2026-05-03 21:15 | -36.66313 | 38.26964 | 35126 ft | 550 kts | 140° |
| 2026-05-03 21:15 | -36.71452 | 38.33981 | 35121 ft | 550 kts | 140° |
| 2026-05-03 21:16 | -36.76619 | 38.41051 | 35128 ft | 550 kts | 140° |
| 2026-05-03 21:16 | -36.81739 | 38.48072 | 35120 ft | 550 kts | 140° |
| 2026-05-03 21:17 | -36.86039 | 38.53979 | 35119 ft | 550 kts | 140° |
| 2026-05-03 21:17 | -36.92050 | 38.62256 | 35118 ft | 550 kts | 140° |
| 2026-05-03 21:18 | -36.97193 | 38.69354 | 35116 ft | 550 kts | 140° |
| 2026-05-03 21:18 | -37.02319 | 38.76443 | 35115 ft | 550 kts | 140° |
| 2026-05-03 21:19 | -37.07438 | 38.83540 | 35116 ft | 550 kts | 140° |
| 2026-05-03 21:19 | -37.12546 | 38.90635 | 35116 ft | 550 kts | 140° |
| 2026-05-03 21:20 | -37.17688 | 38.97794 | 35126 ft | 549 kts | 140° |
| 2026-05-03 21:20 | -37.22791 | 39.04915 | 35126 ft | 549 kts | 140° |
| 2026-05-03 21:21 | -37.27864 | 39.12008 | 35113 ft | 549 kts | 140° |
| 2026-05-03 21:21 | -37.32928 | 39.19104 | 35109 ft | 549 kts | 140° |
| 2026-05-03 21:22 | -37.38055 | 39.26305 | 35113 ft | 549 kts | 140° |
| 2026-05-03 21:22 | -37.43171 | 39.33506 | 35109 ft | 548 kts | 140° |
| 2026-05-03 21:23 | -37.48230 | 39.40643 | 35104 ft | 548 kts | 140° |
| 2026-05-03 21:23 | -37.53294 | 39.47802 | 35104 ft | 547 kts | 140° |
| 2026-05-03 21:24 | -37.58360 | 39.54980 | 35098 ft | 547 kts | 140° |
| 2026-05-03 21:24 | -37.63385 | 39.62117 | 35102 ft | 546 kts | 140° |
| 2026-05-03 21:25 | -37.68456 | 39.69334 | 35099 ft | 546 kts | 139° |
| 2026-05-03 21:25 | -37.73475 | 39.76492 | 35101 ft | 546 kts | 139° |
| 2026-05-03 21:26 | -37.78523 | 39.83709 | 35101 ft | 546 kts | 139° |
| 2026-05-03 21:26 | -37.83518 | 39.90865 | 35099 ft | 545 kts | 139° |
| 2026-05-03 21:27 | -37.88540 | 39.98077 | 35103 ft | 545 kts | 139° |
| 2026-05-03 21:27 | -37.93539 | 40.05272 | 35100 ft | 544 kts | 139° |
| 2026-05-03 21:28 | -37.98546 | 40.12494 | 35099 ft | 544 kts | 139° |
| 2026-05-03 21:28 | -38.03532 | 40.19702 | 35097 ft | 543 kts | 139° |
| 2026-05-03 21:29 | -38.08546 | 40.26967 | 35092 ft | 543 kts | 139° |
| 2026-05-03 21:29 | -38.13498 | 40.34159 | 35096 ft | 542 kts | 139° |
| 2026-05-03 21:30 | -38.18433 | 40.41341 | 35080 ft | 542 kts | 139° |
| 2026-05-03 21:30 | -38.23405 | 40.48593 | 35083 ft | 542 kts | 139° |
| 2026-05-03 21:31 | -38.28343 | 40.55812 | 35080 ft | 542 kts | 139° |
| 2026-05-03 21:31 | -38.33285 | 40.63053 | 35082 ft | 542 kts | 139° |
| 2026-05-03 21:32 | -38.38216 | 40.70295 | 35080 ft | 542 kts | 139° |
| 2026-05-03 21:32 | -38.43183 | 40.77606 | 35079 ft | 543 kts | 139° |
| 2026-05-03 21:33 | -38.48128 | 40.84903 | 35083 ft | 543 kts | 139° |
| 2026-05-03 21:33 | -38.53075 | 40.92218 | 35078 ft | 544 kts | 140° |
| 2026-05-03 21:34 | -38.58007 | 40.99528 | 35082 ft | 544 kts | 140° |
| 2026-05-03 21:34 | -38.62941 | 41.06857 | 35081 ft | 544 kts | 140° |
| 2026-05-03 21:35 | -38.67885 | 41.14219 | 35071 ft | 545 kts | 140° |
| 2026-05-03 21:35 | -38.72799 | 41.21553 | 35087 ft | 545 kts | 140° |
| 2026-05-03 21:36 | -38.77737 | 41.28940 | 35076 ft | 545 kts | 140° |
| 2026-05-03 21:36 | -38.82682 | 41.36355 | 35073 ft | 545 kts | 140° |
| 2026-05-03 21:37 | -38.87565 | 41.43693 | 35069 ft | 545 kts | 140° |
| 2026-05-03 21:37 | -38.92444 | 41.51040 | 35068 ft | 544 kts | 140° |
| 2026-05-03 21:38 | -38.97405 | 41.58520 | 35065 ft | 544 kts | 140° |
| 2026-05-03 21:38 | -39.02286 | 41.65895 | 35067 ft | 544 kts | 140° |
| 2026-05-03 21:39 | -39.06404 | 41.72052 | 35065 ft | 543 kts | 141° |
| 2026-05-03 21:39 | -39.12170 | 41.80602 | 35064 ft | 543 kts | 141° |
| 2026-05-03 21:40 | -39.16310 | 41.86754 | 35066 ft | 543 kts | 141° |
| 2026-05-03 21:40 | -39.21218 | 41.94065 | 35061 ft | 542 kts | 141° |
| 2026-05-03 21:41 | -39.26174 | 42.01476 | 35064 ft | 542 kts | 141° |
| 2026-05-03 21:41 | -39.31045 | 42.08779 | 35064 ft | 541 kts | 141° |
| 2026-05-03 21:42 | -39.35983 | 42.16201 | 35060 ft | 540 kts | 141° |
| 2026-05-03 21:42 | -39.40874 | 42.23570 | 35055 ft | 539 kts | 141° |
| 2026-05-03 21:43 | -39.45747 | 42.30928 | 35051 ft | 539 kts | 141° |
| 2026-05-03 21:43 | -39.50601 | 42.38275 | 35052 ft | 538 kts | 141° |
| 2026-05-03 21:44 | -39.55432 | 42.45604 | 35049 ft | 537 kts | 141° |
| 2026-05-03 21:44 | -39.60313 | 42.53028 | 35052 ft | 537 kts | 141° |
| 2026-05-03 21:45 | -39.65135 | 42.60378 | 35048 ft | 536 kts | 141° |
| 2026-05-03 21:45 | -39.69966 | 42.67759 | 35040 ft | 535 kts | 141° |
| 2026-05-03 21:46 | -39.74761 | 42.75104 | 35049 ft | 534 kts | 141° |
| 2026-05-03 21:46 | -39.79558 | 42.82468 | 35049 ft | 533 kts | 141° |
| 2026-05-03 21:47 | -39.84372 | 42.89877 | 35044 ft | 533 kts | 141° |
| 2026-05-03 21:47 | -39.89153 | 42.97250 | 35045 ft | 532 kts | 141° |
| 2026-05-03 21:48 | -39.93909 | 43.04605 | 35043 ft | 531 kts | 141° |
| 2026-05-03 21:48 | -39.98662 | 43.11970 | 35038 ft | 531 kts | 141° |
| 2026-05-03 21:49 | -40.03388 | 43.19312 | 35034 ft | 530 kts | 141° |
| 2026-05-03 21:49 | -40.08112 | 43.26667 | 35038 ft | 529 kts | 141° |
| 2026-05-03 21:50 | -40.12829 | 43.34030 | 35024 ft | 529 kts | 141° |
| 2026-05-03 21:50 | -40.17586 | 43.41473 | 35023 ft | 529 kts | 141° |
| 2026-05-03 21:51 | -40.22296 | 43.48858 | 35025 ft | 530 kts | 141° |
| 2026-05-03 21:51 | -40.27009 | 43.56268 | 35024 ft | 530 kts | 141° |
| 2026-05-03 21:52 | -40.31720 | 43.63692 | 35026 ft | 531 kts | 141° |
| 2026-05-03 21:52 | -40.36420 | 43.71117 | 35023 ft | 531 kts | 141° |
| 2026-05-03 21:53 | -40.41164 | 43.78629 | 35023 ft | 532 kts | 141° |
| 2026-05-03 21:53 | -40.45878 | 43.86111 | 35023 ft | 532 kts | 141° |
| 2026-05-03 21:54 | -40.50589 | 43.93607 | 35024 ft | 533 kts | 141° |
| 2026-05-03 21:54 | -40.55300 | 44.01122 | 35020 ft | 533 kts | 141° |
| 2026-05-03 21:55 | -40.59990 | 44.08621 | 35016 ft | 534 kts | 141° |
| 2026-05-03 21:55 | -40.64729 | 44.16218 | 35022 ft | 534 kts | 141° |
| 2026-05-03 21:56 | -40.69425 | 44.23764 | 35023 ft | 534 kts | 141° |
| 2026-05-03 21:56 | -40.74156 | 44.31386 | 35023 ft | 534 kts | 141° |
| 2026-05-03 21:57 | -40.78827 | 44.38929 | 35023 ft | 534 kts | 141° |
| 2026-05-03 21:57 | -40.83538 | 44.46556 | 35029 ft | 533 kts | 141° |
| 2026-05-03 21:58 | -40.88209 | 44.54136 | 35014 ft | 533 kts | 141° |
| 2026-05-03 21:58 | -40.92872 | 44.61724 | 35018 ft | 532 kts | 141° |
| 2026-05-03 21:59 | -40.97500 | 44.69271 | 35028 ft | 530 kts | 141° |
| 2026-05-03 21:59 | -41.02168 | 44.76904 | 35024 ft | 529 kts | 141° |
| 2026-05-03 22:00 | -41.06766 | 44.84439 | 35030 ft | 528 kts | 141° |
| 2026-05-03 22:00 | -41.11381 | 44.92023 | 35037 ft | 527 kts | 141° |
| 2026-05-03 22:01 | -41.15969 | 44.99580 | 35018 ft | 525 kts | 141° |
| 2026-05-03 22:01 | -41.20533 | 45.07116 | 35026 ft | 524 kts | 141° |
| 2026-05-03 22:02 | -41.25105 | 45.14684 | 35022 ft | 523 kts | 141° |
| 2026-05-03 22:02 | -41.29648 | 45.22223 | 35020 ft | 522 kts | 141° |
| 2026-05-03 22:03 | -41.34172 | 45.29747 | 35013 ft | 521 kts | 141° |
| 2026-05-03 22:03 | -41.38696 | 45.37294 | 35019 ft | 520 kts | 141° |
| 2026-05-03 22:04 | -41.43198 | 45.44818 | 35005 ft | 520 kts | 141° |
| 2026-05-03 22:04 | -41.47698 | 45.52359 | 35012 ft | 520 kts | 141° |
| 2026-05-03 22:05 | -41.52186 | 45.59898 | 35014 ft | 521 kts | 141° |
| 2026-05-03 22:05 | -41.56673 | 45.67455 | 35022 ft | 521 kts | 141° |
| 2026-05-03 22:06 | -41.61183 | 45.75069 | 35021 ft | 522 kts | 140° |
| 2026-05-03 22:06 | -41.65688 | 45.82696 | 35016 ft | 523 kts | 140° |
| 2026-05-03 22:07 | -41.70190 | 45.90335 | 35023 ft | 524 kts | 140° |
| 2026-05-03 22:07 | -41.74670 | 45.97958 | 35029 ft | 524 kts | 140° |
| 2026-05-03 22:08 | -41.79203 | 46.05689 | 35027 ft | 525 kts | 140° |
| 2026-05-03 22:08 | -41.83708 | 46.13393 | 35027 ft | 525 kts | 140° |
| 2026-05-03 22:09 | -41.88190 | 46.21078 | 35023 ft | 525 kts | 140° |
| 2026-05-03 22:10 | -41.94939 | 46.32686 | 35022 ft | 526 kts | 140° |
| 2026-05-03 22:10 | -41.99442 | 46.40453 | 35022 ft | 526 kts | 140° |
| 2026-05-03 22:11 | -42.03923 | 46.48196 | 35020 ft | 526 kts | 140° |
| 2026-05-03 22:11 | -42.08436 | 46.56008 | 35031 ft | 526 kts | 140° |
| 2026-05-03 22:12 | -42.12940 | 46.63801 | 35011 ft | 525 kts | 141° |
| 2026-05-03 22:12 | -42.17591 | 46.71205 | 35013 ft | 521 kts | 143° |
| 2026-05-03 22:13 | -42.22348 | 46.78662 | 35016 ft | 522 kts | 142° |
| 2026-05-03 22:13 | -42.27056 | 46.86135 | 35020 ft | 523 kts | 142° |
| 2026-05-03 22:14 | -42.31771 | 46.93664 | 35016 ft | 524 kts | 142° |
| 2026-05-03 22:14 | -42.36466 | 47.01191 | 35018 ft | 524 kts | 141° |
| 2026-05-03 22:15 | -42.41145 | 47.08712 | 35015 ft | 524 kts | 141° |
| 2026-05-03 22:15 | -42.45854 | 47.16299 | 35019 ft | 524 kts | 141° |
| 2026-05-03 22:16 | -42.50552 | 47.23890 | 35013 ft | 525 kts | 141° |
| 2026-05-03 22:16 | -42.55223 | 47.31455 | 35016 ft | 525 kts | 141° |
| 2026-05-03 22:17 | -42.59915 | 47.39074 | 35016 ft | 526 kts | 140° |
| 2026-05-03 22:17 | -42.64590 | 47.46685 | 35019 ft | 526 kts | 140° |
| 2026-05-03 22:18 | -42.68504 | 47.53071 | 35013 ft | 527 kts | 140° |
| 2026-05-03 22:18 | -42.73977 | 47.62025 | 35024 ft | 527 kts | 140° |
| 2026-05-03 22:19 | -42.78640 | 47.69676 | 35015 ft | 528 kts | 139° |
| 2026-05-03 22:19 | -42.82558 | 47.76120 | 35013 ft | 529 kts | 139° |
| 2026-05-03 22:20 | -42.87216 | 47.83799 | 35016 ft | 530 kts | 139° |
| 2026-05-03 22:20 | -42.91916 | 47.91567 | 35017 ft | 531 kts | 139° |
| 2026-05-03 22:21 | -42.96593 | 47.99319 | 35017 ft | 532 kts | 138° |
| 2026-05-03 22:21 | -43.01305 | 48.07150 | 35022 ft | 532 kts | 138° |
| 2026-05-03 22:22 | -43.06016 | 48.14999 | 35019 ft | 533 kts | 138° |
| 2026-05-03 22:22 | -43.10688 | 48.22805 | 35027 ft | 533 kts | 137° |
| 2026-05-03 22:23 | -43.15371 | 48.30650 | 35022 ft | 534 kts | 137° |
| 2026-05-03 22:23 | -43.20099 | 48.38590 | 35025 ft | 534 kts | 137° |
| 2026-05-03 22:24 | -43.24777 | 48.46469 | 35030 ft | 534 kts | 137° |
| 2026-05-03 22:24 | -43.29450 | 48.54362 | 35015 ft | 534 kts | 136° |
| 2026-05-03 22:25 | -43.34121 | 48.62270 | 35012 ft | 534 kts | 136° |
| 2026-05-03 22:25 | -43.38803 | 48.70219 | 35015 ft | 534 kts | 136° |
| 2026-05-03 22:26 | -43.43455 | 48.78139 | 35011 ft | 534 kts | 136° |
| 2026-05-03 22:26 | -43.48127 | 48.86114 | 35014 ft | 535 kts | 136° |
| 2026-05-03 22:27 | -43.52766 | 48.94056 | 35004 ft | 535 kts | 135° |
| 2026-05-03 22:27 | -43.57429 | 49.02059 | 35012 ft | 535 kts | 135° |
| 2026-05-03 22:28 | -43.62111 | 49.10119 | 35011 ft | 536 kts | 135° |
| 2026-05-03 22:28 | -43.66765 | 49.18151 | 35012 ft | 536 kts | 135° |
| 2026-05-03 22:29 | -43.71407 | 49.26184 | 35008 ft | 537 kts | 135° |
| 2026-05-03 22:29 | -43.76070 | 49.34278 | 35010 ft | 537 kts | 134° |
| 2026-05-03 22:30 | -43.80708 | 49.42349 | 35009 ft | 537 kts | 134° |
| 2026-05-03 22:30 | -43.85363 | 49.50474 | 35008 ft | 538 kts | 134° |
| 2026-05-03 22:31 | -43.90039 | 49.58657 | 35003 ft | 538 kts | 134° |
| 2026-05-03 22:31 | -43.94642 | 49.66736 | 35005 ft | 538 kts | 134° |
| 2026-05-03 22:32 | -43.99300 | 49.74934 | 35001 ft | 539 kts | 133° |
| 2026-05-03 22:32 | -44.03911 | 49.83071 | 35007 ft | 539 kts | 133° |
| 2026-05-03 22:33 | -44.08504 | 49.91235 | 34998 ft | 520 kts | 135° |
| 2026-05-03 22:33 | -44.12916 | 49.99056 | 35005 ft | 516 kts | 136° |
| 2026-05-03 22:34 | -44.17371 | 50.06961 | 35001 ft | 517 kts | 135° |
| 2026-05-03 22:34 | -44.21792 | 50.14849 | 35002 ft | 517 kts | 135° |
| 2026-05-03 22:35 | -44.26210 | 50.22756 | 34997 ft | 517 kts | 135° |
| 2026-05-03 22:35 | -44.30625 | 50.30677 | 34996 ft | 517 kts | 135° |
| 2026-05-03 22:36 | -44.35026 | 50.38596 | 34994 ft | 517 kts | 135° |
| 2026-05-03 22:36 | -44.39447 | 50.46572 | 34999 ft | 517 kts | 134° |
| 2026-05-03 22:37 | -44.43828 | 50.54497 | 34990 ft | 517 kts | 134° |
| 2026-05-03 22:37 | -44.48228 | 50.62480 | 34995 ft | 517 kts | 134° |
| 2026-05-03 22:38 | -44.52631 | 50.70490 | 34982 ft | 516 kts | 134° |
| 2026-05-03 22:38 | -44.56974 | 50.78412 | 34983 ft | 516 kts | 134° |
| 2026-05-03 22:39 | -44.61356 | 50.86428 | 34990 ft | 516 kts | 134° |
| 2026-05-03 22:39 | -44.65714 | 50.94423 | 34992 ft | 516 kts | 133° |
| 2026-05-03 22:40 | -44.70067 | 51.02431 | 34990 ft | 516 kts | 133° |
| 2026-05-03 22:40 | -44.74413 | 51.10448 | 34994 ft | 516 kts | 133° |
| 2026-05-03 22:41 | -44.78760 | 51.18488 | 34993 ft | 516 kts | 133° |
| 2026-05-03 22:41 | -44.83099 | 51.26538 | 34992 ft | 515 kts | 133° |
| 2026-05-03 22:42 | -44.87400 | 51.34538 | 34982 ft | 515 kts | 133° |
| 2026-05-03 22:42 | -44.91754 | 51.42650 | 34987 ft | 515 kts | 133° |
| 2026-05-03 22:43 | -44.96067 | 51.50703 | 34983 ft | 515 kts | 133° |
| 2026-05-03 22:43 | -45.00410 | 51.58691 | 34985 ft | 512 kts | 135° |
| 2026-05-03 22:44 | -45.05051 | 51.66289 | 34983 ft | 511 kts | 136° |
| 2026-05-03 22:44 | -45.09689 | 51.73873 | 34983 ft | 511 kts | 136° |
| 2026-05-03 22:45 | -45.14331 | 51.81578 | 34981 ft | 511 kts | 136° |
| 2026-05-03 22:45 | -45.18939 | 51.89279 | 34982 ft | 511 kts | 135° |
| 2026-05-03 22:46 | -45.23525 | 51.96969 | 34982 ft | 511 kts | 135° |
| 2026-05-03 22:46 | -45.28113 | 52.04684 | 34983 ft | 511 kts | 135° |
| 2026-05-03 22:47 | -45.32688 | 52.12400 | 34979 ft | 511 kts | 135° |
| 2026-05-03 22:47 | -45.37262 | 52.20133 | 34982 ft | 511 kts | 135° |
| 2026-05-03 22:48 | -45.41837 | 52.27891 | 34980 ft | 511 kts | 135° |
| 2026-05-03 22:48 | -45.46408 | 52.35663 | 34976 ft | 511 kts | 135° |
| 2026-05-03 22:49 | -45.50934 | 52.43380 | 34978 ft | 511 kts | 135° |
| 2026-05-03 22:49 | -45.55487 | 52.51165 | 34974 ft | 511 kts | 135° |
| 2026-05-03 22:50 | -45.59987 | 52.58880 | 34974 ft | 510 kts | 134° |
| 2026-05-03 22:50 | -45.64519 | 52.66670 | 34970 ft | 510 kts | 134° |
| 2026-05-03 22:51 | -45.69032 | 52.74451 | 34973 ft | 510 kts | 134° |
| 2026-05-03 22:51 | -45.73598 | 52.82346 | 34980 ft | 510 kts | 134° |
| 2026-05-03 22:52 | -45.78106 | 52.90161 | 34979 ft | 510 kts | 134° |
| 2026-05-03 22:52 | -45.82594 | 52.97964 | 34960 ft | 510 kts | 134° |
| 2026-05-03 22:53 | -45.87129 | 53.05871 | 34972 ft | 510 kts | 134° |
| 2026-05-03 22:53 | -45.91624 | 53.13730 | 34963 ft | 510 kts | 134° |
| 2026-05-03 22:54 | -45.96113 | 53.21600 | 34965 ft | 510 kts | 134° |
| 2026-05-03 22:54 | -46.00579 | 53.29453 | 34966 ft | 510 kts | 134° |
| 2026-05-03 22:55 | -46.05084 | 53.37397 | 34961 ft | 510 kts | 133° |
| 2026-05-03 22:55 | -46.09569 | 53.45327 | 34961 ft | 510 kts | 133° |
| 2026-05-03 22:56 | -46.14033 | 53.53244 | 34958 ft | 510 kts | 133° |
| 2026-05-03 22:56 | -46.18503 | 53.61193 | 34959 ft | 510 kts | 133° |
| 2026-05-03 22:57 | -46.22962 | 53.69146 | 34955 ft | 510 kts | 133° |
| 2026-05-03 22:57 | -46.27403 | 53.77089 | 34948 ft | 510 kts | 133° |
| 2026-05-03 22:58 | -46.31862 | 53.85087 | 34952 ft | 510 kts | 133° |
| 2026-05-03 22:58 | -46.36285 | 53.93045 | 34948 ft | 510 kts | 133° |
| 2026-05-03 22:59 | -46.40739 | 54.01079 | 34949 ft | 510 kts | 133° |
| 2026-05-03 22:59 | -46.45161 | 54.09080 | 34951 ft | 510 kts | 133° |
| 2026-05-03 23:00 | -46.48870 | 54.15809 | 34944 ft | 510 kts | 132° |
| 2026-05-03 23:00 | -46.54018 | 54.25176 | 34944 ft | 510 kts | 132° |
| 2026-05-03 23:01 | -46.57698 | 54.31890 | 34952 ft | 510 kts | 132° |
| 2026-05-03 23:01 | -46.62103 | 54.39950 | 34950 ft | 510 kts | 132° |
| 2026-05-03 23:02 | -46.66514 | 54.48044 | 34949 ft | 510 kts | 132° |
| 2026-05-03 23:02 | -46.70926 | 54.56162 | 34937 ft | 510 kts | 132° |
| 2026-05-03 23:03 | -46.75318 | 54.64270 | 34951 ft | 510 kts | 132° |
| 2026-05-03 23:03 | -46.79681 | 54.72346 | 34932 ft | 510 kts | 131° |
| 2026-05-03 23:04 | -46.84090 | 54.80532 | 34934 ft | 510 kts | 131° |
| 2026-05-03 23:04 | -46.88467 | 54.88682 | 34931 ft | 510 kts | 131° |
| 2026-05-03 23:05 | -46.92813 | 54.96797 | 34933 ft | 510 kts | 131° |
| 2026-05-03 23:05 | -46.97176 | 55.04971 | 34925 ft | 510 kts | 131° |
| 2026-05-03 23:06 | -47.01553 | 55.13193 | 34927 ft | 510 kts | 131° |
| 2026-05-03 23:06 | -47.05920 | 55.21422 | 34926 ft | 510 kts | 131° |
| 2026-05-03 23:07 | -47.10265 | 55.29633 | 34925 ft | 510 kts | 131° |
| 2026-05-03 23:07 | -47.14586 | 55.37825 | 34923 ft | 510 kts | 130° |
| 2026-05-03 23:08 | -47.18935 | 55.46094 | 34923 ft | 510 kts | 130° |
| 2026-05-03 23:08 | -47.23259 | 55.54339 | 34919 ft | 510 kts | 130° |
| 2026-05-03 23:09 | -47.27590 | 55.62623 | 34913 ft | 510 kts | 130° |
| 2026-05-03 23:09 | -47.31894 | 55.70879 | 34918 ft | 509 kts | 130° |
| 2026-05-03 23:10 | -47.36226 | 55.79215 | 34915 ft | 509 kts | 130° |
| 2026-05-03 23:10 | -47.40526 | 55.87516 | 34915 ft | 509 kts | 130° |
| 2026-05-03 23:11 | -47.44824 | 55.95835 | 34910 ft | 510 kts | 130° |
| 2026-05-03 23:11 | -47.49117 | 56.04171 | 34909 ft | 510 kts | 130° |
| 2026-05-03 23:12 | -47.53404 | 56.12523 | 34911 ft | 510 kts | 129° |
| 2026-05-03 23:12 | -47.57663 | 56.20842 | 34911 ft | 510 kts | 129° |
| 2026-05-03 23:13 | -47.61976 | 56.29296 | 34909 ft | 510 kts | 129° |
| 2026-05-03 23:13 | -47.66253 | 56.37698 | 34908 ft | 510 kts | 129° |
| 2026-05-03 23:14 | -47.70495 | 56.46047 | 34905 ft | 511 kts | 129° |
| 2026-05-03 23:14 | -47.74770 | 56.54483 | 34905 ft | 511 kts | 129° |
| 2026-05-03 23:15 | -47.79101 | 56.62841 | 34903 ft | 510 kts | 130° |
| 2026-05-03 23:15 | -47.83504 | 56.71138 | 34900 ft | 511 kts | 130° |
| 2026-05-03 23:16 | -47.87884 | 56.79429 | 34904 ft | 511 kts | 130° |
| 2026-05-03 23:16 | -47.92279 | 56.87788 | 34901 ft | 511 kts | 130° |
| 2026-05-03 23:17 | -47.96643 | 56.96127 | 34897 ft | 511 kts | 130° |
| 2026-05-03 23:17 | -48.01017 | 57.04520 | 34894 ft | 511 kts | 129° |
| 2026-05-03 23:18 | -48.05388 | 57.12931 | 34896 ft | 512 kts | 129° |
| 2026-05-03 23:18 | -48.09743 | 57.21338 | 34898 ft | 512 kts | 129° |
| 2026-05-03 23:19 | -48.14083 | 57.29744 | 34895 ft | 512 kts | 129° |
| 2026-05-03 23:19 | -48.18440 | 57.38209 | 34894 ft | 512 kts | 129° |
| 2026-05-03 23:20 | -48.22804 | 57.46712 | 34890 ft | 512 kts | 129° |
| 2026-05-03 23:20 | -48.27136 | 57.55179 | 34887 ft | 512 kts | 129° |
| 2026-05-03 23:21 | -48.31476 | 57.63691 | 34886 ft | 513 kts | 129° |
| 2026-05-03 23:21 | -48.35797 | 57.72190 | 34883 ft | 513 kts | 128° |
| 2026-05-03 23:22 | -48.42300 | 57.85034 | 34885 ft | 514 kts | 128° |
| 2026-05-03 23:22 | -48.46620 | 57.93600 | 34884 ft | 514 kts | 128° |
| 2026-05-03 23:23 | -48.50940 | 58.02193 | 34884 ft | 514 kts | 128° |
| 2026-05-03 23:23 | -48.55246 | 58.10784 | 34877 ft | 515 kts | 128° |
| 2026-05-03 23:24 | -48.59555 | 58.19411 | 34878 ft | 515 kts | 128° |
| 2026-05-03 23:24 | -48.63871 | 58.28077 | 34875 ft | 515 kts | 127° |
| 2026-05-03 23:25 | -48.68171 | 58.36742 | 34875 ft | 516 kts | 127° |
| 2026-05-03 23:25 | -48.72481 | 58.45452 | 34866 ft | 516 kts | 127° |
| 2026-05-03 23:26 | -48.76766 | 58.54140 | 34874 ft | 516 kts | 127° |
| 2026-05-03 23:26 | -48.81077 | 58.62912 | 34873 ft | 517 kts | 127° |
| 2026-05-03 23:27 | -48.85375 | 58.71685 | 34874 ft | 517 kts | 127° |
| 2026-05-03 23:27 | -48.89655 | 58.80447 | 34873 ft | 517 kts | 126° |
| 2026-05-03 23:28 | -48.93921 | 58.89212 | 34868 ft | 517 kts | 126° |
| 2026-05-03 23:28 | -48.98187 | 58.98004 | 34867 ft | 517 kts | 126° |
| 2026-05-03 23:29 | -49.02437 | 59.06793 | 34867 ft | 518 kts | 126° |
| 2026-05-03 23:29 | -49.06702 | 59.15642 | 34865 ft | 518 kts | 126° |
| 2026-05-03 23:30 | -49.10979 | 59.24545 | 34859 ft | 518 kts | 126° |
| 2026-05-03 23:30 | -49.15239 | 59.33442 | 34861 ft | 518 kts | 126° |
| 2026-05-03 23:31 | -49.19472 | 59.42312 | 34859 ft | 518 kts | 125° |
| 2026-05-03 23:31 | -49.23719 | 59.51241 | 34860 ft | 519 kts | 125° |
| 2026-05-03 23:32 | -49.27967 | 59.60201 | 34859 ft | 519 kts | 125° |
| 2026-05-03 23:32 | -49.32208 | 59.69177 | 34854 ft | 520 kts | 125° |
| 2026-05-03 23:33 | -49.36431 | 59.78146 | 34853 ft | 520 kts | 124° |
| 2026-05-03 23:33 | -49.40656 | 59.87149 | 34855 ft | 521 kts | 124° |
| 2026-05-03 23:34 | -49.44871 | 59.96161 | 34851 ft | 521 kts | 124° |
| 2026-05-03 23:34 | -49.49113 | 60.05261 | 34853 ft | 522 kts | 124° |
| 2026-05-03 23:35 | -49.53329 | 60.14338 | 34856 ft | 522 kts | 124° |
| 2026-05-03 23:35 | -49.57551 | 60.23457 | 34855 ft | 523 kts | 124° |
| 2026-05-03 23:36 | -49.61744 | 60.32545 | 34855 ft | 523 kts | 124° |
| 2026-05-03 23:36 | -49.65937 | 60.41664 | 34853 ft | 523 kts | 123° |
| 2026-05-03 23:37 | -49.70156 | 60.50872 | 34853 ft | 524 kts | 123° |
| 2026-05-03 23:37 | -49.74351 | 60.60060 | 34851 ft | 524 kts | 123° |
| 2026-05-03 23:38 | -49.78537 | 60.69259 | 34852 ft | 524 kts | 123° |
| 2026-05-03 23:38 | -49.82748 | 60.78545 | 34851 ft | 524 kts | 123° |
| 2026-05-03 23:39 | -49.86919 | 60.87775 | 34852 ft | 525 kts | 123° |
| 2026-05-03 23:39 | -49.91092 | 60.97042 | 34852 ft | 525 kts | 122° |
| 2026-05-03 23:40 | -49.94567 | 61.04785 | 34852 ft | 525 kts | 122° |
| 2026-05-03 23:40 | -49.98743 | 61.14117 | 34852 ft | 525 kts | 122° |
| 2026-05-03 23:41 | -50.02891 | 61.23422 | 34852 ft | 526 kts | 122° |
| 2026-05-03 23:41 | -50.07050 | 61.32783 | 34851 ft | 526 kts | 122° |
| 2026-05-03 23:42 | -50.11885 | 61.43709 | 34850 ft | 526 kts | 122° |
| 2026-05-03 23:42 | -50.15351 | 61.51566 | 34854 ft | 527 kts | 122° |
| 2026-05-03 23:43 | -50.19492 | 61.60988 | 34856 ft | 527 kts | 122° |
| 2026-05-03 23:43 | -50.23635 | 61.70447 | 34864 ft | 527 kts | 121° |
| 2026-05-03 23:44 | -50.27763 | 61.79906 | 34857 ft | 528 kts | 121° |
| 2026-05-03 23:44 | -50.31905 | 61.89431 | 34858 ft | 528 kts | 121° |
| 2026-05-03 23:45 | -50.36007 | 61.98899 | 34860 ft | 528 kts | 121° |
| 2026-05-03 23:45 | -50.40102 | 62.08385 | 34857 ft | 528 kts | 121° |
| 2026-05-03 23:46 | -50.44208 | 62.17930 | 34858 ft | 528 kts | 121° |
| 2026-05-03 23:46 | -50.48344 | 62.27580 | 34858 ft | 528 kts | 121° |
| 2026-05-03 23:47 | -50.52408 | 62.37084 | 34861 ft | 528 kts | 121° |
| 2026-05-03 23:47 | -50.56499 | 62.46675 | 34861 ft | 529 kts | 121° |
| 2026-05-03 23:48 | -50.60548 | 62.56348 | 34860 ft | 527 kts | 118° |
| 2026-05-03 23:48 | -50.64369 | 62.66240 | 34858 ft | 528 kts | 119° |
| 2026-05-03 23:49 | -50.68282 | 62.76019 | 34859 ft | 528 kts | 118° |
| 2026-05-03 23:49 | -50.72168 | 62.85834 | 34867 ft | 528 kts | 118° |
| 2026-05-03 23:50 | -50.76075 | 62.95781 | 34868 ft | 529 kts | 118° |
| 2026-05-03 23:50 | -50.79918 | 63.05626 | 34871 ft | 529 kts | 118° |
| 2026-05-03 23:51 | -50.83764 | 63.15523 | 34867 ft | 529 kts | 118° |
| 2026-05-03 23:51 | -50.87622 | 63.25489 | 34869 ft | 530 kts | 118° |
| 2026-05-03 23:52 | -50.91441 | 63.35393 | 34872 ft | 530 kts | 117° |
| 2026-05-03 23:52 | -50.95281 | 63.45390 | 34884 ft | 531 kts | 117° |
| 2026-05-03 23:53 | -50.99145 | 63.55487 | 34885 ft | 531 kts | 117° |
| 2026-05-03 23:53 | -51.02971 | 63.65524 | 34890 ft | 532 kts | 117° |
| 2026-05-03 23:54 | -51.06792 | 63.75587 | 34891 ft | 533 kts | 117° |
| 2026-05-03 23:54 | -51.10625 | 63.85723 | 34887 ft | 534 kts | 117° |
| 2026-05-03 23:55 | -51.14413 | 63.95778 | 34870 ft | 535 kts | 117° |
| 2026-05-03 23:55 | -51.18247 | 64.05995 | 34889 ft | 535 kts | 117° |
| 2026-05-03 23:56 | -51.22065 | 64.16211 | 34890 ft | 535 kts | 117° |
| 2026-05-03 23:56 | -51.25859 | 64.26403 | 34889 ft | 536 kts | 117° |
| 2026-05-03 23:57 | -51.29663 | 64.36662 | 34888 ft | 536 kts | 117° |
| 2026-05-03 23:57 | -51.33455 | 64.46933 | 34890 ft | 537 kts | 116° |
| 2026-05-03 23:58 | -51.37245 | 64.57238 | 34896 ft | 538 kts | 116° |
| 2026-05-03 23:58 | -51.41044 | 64.67608 | 34895 ft | 539 kts | 116° |
| 2026-05-03 23:59 | -51.44814 | 64.77941 | 34902 ft | 540 kts | 116° |
| 2026-05-03 23:59 | -51.48600 | 64.88362 | 34906 ft | 541 kts | 116° |
| 2026-05-04 00:00 | -51.52369 | 64.98777 | 34910 ft | 541 kts | 116° |
| 2026-05-04 00:00 | -51.56152 | 65.09275 | 34911 ft | 542 kts | 116° |
| 2026-05-04 00:01 | -51.59916 | 65.19764 | 34914 ft | 543 kts | 116° |
| 2026-05-04 00:01 | -51.63688 | 65.30316 | 34923 ft | 544 kts | 116° |
| 2026-05-04 00:02 | -51.67475 | 65.40959 | 34920 ft | 545 kts | 116° |
| 2026-05-04 00:02 | -51.71225 | 65.51539 | 34925 ft | 546 kts | 116° |
| 2026-05-04 00:03 | -51.74988 | 65.62203 | 34930 ft | 547 kts | 115° |
| 2026-05-04 00:03 | -51.78714 | 65.72807 | 34935 ft | 548 kts | 115° |
| 2026-05-04 00:04 | -51.82495 | 65.83611 | 34942 ft | 548 kts | 115° |
| 2026-05-04 00:04 | -51.86245 | 65.94373 | 34942 ft | 549 kts | 115° |
| 2026-05-04 00:05 | -51.89968 | 66.05103 | 34939 ft | 549 kts | 115° |
| 2026-05-04 00:05 | -51.93696 | 66.15897 | 34944 ft | 550 kts | 115° |
| 2026-05-04 00:06 | -51.97422 | 66.26728 | 34946 ft | 550 kts | 115° |
| 2026-05-04 00:06 | -52.01151 | 66.37618 | 34952 ft | 551 kts | 115° |
| 2026-05-04 00:07 | -52.04852 | 66.48472 | 34950 ft | 551 kts | 115° |
| 2026-05-04 00:07 | -52.08554 | 66.59376 | 34948 ft | 552 kts | 115° |
| 2026-05-04 00:08 | -52.12258 | 66.70331 | 34964 ft | 553 kts | 115° |
| 2026-05-04 00:08 | -52.15948 | 66.81298 | 34963 ft | 554 kts | 115° |
| 2026-05-04 00:09 | -52.19654 | 66.92357 | 34965 ft | 554 kts | 115° |
| 2026-05-04 00:09 | -52.23312 | 67.03324 | 34967 ft | 555 kts | 115° |
| 2026-05-04 00:10 | -52.26996 | 67.14417 | 34974 ft | 556 kts | 115° |
| 2026-05-04 00:10 | -52.30647 | 67.25462 | 34974 ft | 556 kts | 115° |
| 2026-05-04 00:11 | -52.34328 | 67.36645 | 34978 ft | 557 kts | 114° |
| 2026-05-04 00:11 | -52.37978 | 67.47787 | 34981 ft | 558 kts | 114° |
| 2026-05-04 00:12 | -52.41636 | 67.59002 | 34986 ft | 559 kts | 114° |
| 2026-05-04 00:12 | -52.45310 | 67.70319 | 34984 ft | 560 kts | 114° |
| 2026-05-04 00:13 | -52.48966 | 67.81635 | 34993 ft | 561 kts | 114° |
| 2026-05-04 00:13 | -52.52607 | 67.92952 | 34994 ft | 562 kts | 114° |
| 2026-05-04 00:14 | -52.56235 | 68.04284 | 34994 ft | 563 kts | 114° |
| 2026-05-04 00:14 | -52.59886 | 68.15741 | 35001 ft | 564 kts | 114° |
| 2026-05-04 00:15 | -52.63502 | 68.27140 | 35009 ft | 564 kts | 114° |
| 2026-05-04 00:15 | -52.67115 | 68.38585 | 35016 ft | 565 kts | 114° |
| 2026-05-04 00:16 | -52.70730 | 68.50088 | 35011 ft | 565 kts | 114° |
| 2026-05-04 00:16 | -52.74346 | 68.61653 | 35011 ft | 566 kts | 114° |
| 2026-05-04 00:17 | -52.77941 | 68.73203 | 35017 ft | 566 kts | 114° |
| 2026-05-04 00:17 | -52.81548 | 68.84845 | 35023 ft | 567 kts | 114° |
| 2026-05-04 00:18 | -52.85119 | 68.96427 | 35018 ft | 567 kts | 114° |
| 2026-05-04 00:18 | -52.88679 | 69.08000 | 35027 ft | 568 kts | 114° |
| 2026-05-04 00:19 | -52.92239 | 69.19658 | 35023 ft | 567 kts | 112° |
| 2026-05-04 00:19 | -52.95072 | 69.31817 | 35027 ft | 563 kts | 104° |
| 2026-05-04 00:20 | -52.97600 | 69.44154 | 35026 ft | 565 kts | 105° |
| 2026-05-04 00:20 | -53.00168 | 69.56470 | 35031 ft | 565 kts | 105° |
| 2026-05-04 00:21 | -53.02708 | 69.68843 | 35036 ft | 566 kts | 105° |
| 2026-05-04 00:21 | -53.05221 | 69.81227 | 35039 ft | 567 kts | 105° |
| 2026-05-04 00:22 | -53.07730 | 69.93684 | 35039 ft | 567 kts | 105° |
| 2026-05-04 00:22 | -53.10210 | 70.06070 | 35043 ft | 568 kts | 105° |
| 2026-05-04 00:23 | -53.12283 | 70.16483 | 35043 ft | 568 kts | 105° |
| 2026-05-04 00:23 | -53.14766 | 70.29031 | 35047 ft | 568 kts | 105° |
| 2026-05-04 00:24 | -53.17224 | 70.41536 | 35052 ft | 568 kts | 105° |
| 2026-05-04 00:24 | -53.19672 | 70.54068 | 35054 ft | 569 kts | 105° |
| 2026-05-04 00:25 | -53.22110 | 70.66628 | 35060 ft | 569 kts | 105° |
| 2026-05-04 00:25 | -53.24532 | 70.79189 | 35052 ft | 570 kts | 105° |
| 2026-05-04 00:26 | -53.26961 | 70.91871 | 35057 ft | 570 kts | 105° |
| 2026-05-04 00:26 | -53.29372 | 71.04547 | 35060 ft | 571 kts | 105° |
| 2026-05-04 00:27 | -53.31725 | 71.16998 | 35066 ft | 572 kts | 105° |
| 2026-05-04 00:27 | -53.34111 | 71.29706 | 35066 ft | 572 kts | 105° |
| 2026-05-04 00:28 | -53.36487 | 71.42448 | 35070 ft | 573 kts | 105° |
| 2026-05-04 00:28 | -53.38847 | 71.55197 | 35069 ft | 573 kts | 105° |
| 2026-05-04 00:29 | -53.41190 | 71.67932 | 35071 ft | 574 kts | 105° |
| 2026-05-04 00:29 | -53.43522 | 71.80700 | 35073 ft | 574 kts | 105° |
| 2026-05-04 00:30 | -53.45849 | 71.93534 | 35079 ft | 574 kts | 105° |
| 2026-05-04 00:30 | -53.48172 | 72.06427 | 35080 ft | 575 kts | 105° |
| 2026-05-04 00:31 | -53.50463 | 72.19239 | 35083 ft | 575 kts | 105° |
| 2026-05-04 00:31 | -53.52746 | 72.32098 | 35081 ft | 576 kts | 105° |
| 2026-05-04 00:32 | -53.55027 | 72.45037 | 35089 ft | 577 kts | 105° |
| 2026-05-04 00:32 | -53.57301 | 72.58026 | 35090 ft | 577 kts | 104° |
| 2026-05-04 00:33 | -53.60683 | 72.77522 | 35089 ft | 578 kts | 104° |
| 2026-05-04 00:34 | -53.62912 | 72.90498 | 35093 ft | 578 kts | 104° |
| 2026-05-04 00:34 | -53.65126 | 73.03469 | 35090 ft | 579 kts | 104° |
| 2026-05-04 00:35 | -53.67341 | 73.16555 | 35099 ft | 580 kts | 104° |
| 2026-05-04 00:35 | -53.69536 | 73.29612 | 35090 ft | 580 kts | 104° |
| 2026-05-04 00:36 | -53.71731 | 73.42768 | 35104 ft | 581 kts | 104° |
| 2026-05-04 00:36 | -53.73901 | 73.55878 | 35102 ft | 581 kts | 104° |
| 2026-05-04 00:37 | -53.76052 | 73.68970 | 35106 ft | 582 kts | 104° |
| 2026-05-04 00:37 | -53.78209 | 73.82201 | 35110 ft | 582 kts | 104° |
| 2026-05-04 00:38 | -53.80340 | 73.95380 | 35107 ft | 583 kts | 104° |
| 2026-05-04 00:38 | -53.82471 | 74.08656 | 35109 ft | 583 kts | 104° |
| 2026-05-04 00:39 | -53.84572 | 74.21853 | 35110 ft | 583 kts | 104° |
| 2026-05-04 00:39 | -53.86674 | 74.35159 | 35113 ft | 584 kts | 104° |
| 2026-05-04 00:40 | -53.88761 | 74.48472 | 35112 ft | 584 kts | 104° |
| 2026-05-04 00:40 | -53.90837 | 74.61830 | 35114 ft | 585 kts | 104° |
| 2026-05-04 00:41 | -53.92889 | 74.75142 | 35113 ft | 585 kts | 104° |
| 2026-05-04 00:41 | -53.94942 | 74.88521 | 35115 ft | 586 kts | 104° |
| 2026-05-04 00:42 | -53.96927 | 75.01901 | 35112 ft | 586 kts | 101° |
| 2026-05-04 00:42 | -53.98733 | 75.15418 | 35110 ft | 586 kts | 104° |
| 2026-05-04 00:43 | -54.00653 | 75.28871 | 35118 ft | 587 kts | 103° |
| 2026-05-04 00:43 | -54.02515 | 75.42365 | 35118 ft | 588 kts | 103° |
| 2026-05-04 00:44 | -54.04348 | 75.55915 | 35118 ft | 588 kts | 103° |
| 2026-05-04 00:44 | -54.06168 | 75.69509 | 35120 ft | 588 kts | 103° |
| 2026-05-04 00:45 | -54.07939 | 75.83076 | 35120 ft | 589 kts | 102° |
| 2026-05-04 00:45 | -54.09666 | 75.96692 | 35123 ft | 589 kts | 103° |
| 2026-05-04 00:46 | -54.11408 | 76.10325 | 35122 ft | 589 kts | 103° |
| 2026-05-04 00:46 | -54.13143 | 76.23956 | 35120 ft | 589 kts | 103° |
| 2026-05-04 00:47 | -54.14859 | 76.37633 | 35120 ft | 589 kts | 103° |
| 2026-05-04 00:47 | -54.16552 | 76.51312 | 35124 ft | 590 kts | 103° |
| 2026-05-04 00:48 | -54.18223 | 76.64956 | 35124 ft | 590 kts | 103° |
| 2026-05-04 00:48 | -54.19893 | 76.78731 | 35114 ft | 590 kts | 103° |
| 2026-05-04 00:49 | -54.21538 | 76.92441 | 35117 ft | 590 kts | 103° |
| 2026-05-04 00:49 | -54.23172 | 77.06199 | 35122 ft | 591 kts | 103° |
| 2026-05-04 00:50 | -54.24791 | 77.19968 | 35121 ft | 591 kts | 103° |
| 2026-05-04 00:50 | -54.26390 | 77.33715 | 35122 ft | 591 kts | 103° |
| 2026-05-04 00:51 | -54.27978 | 77.47516 | 35123 ft | 591 kts | 103° |
| 2026-05-04 00:51 | -54.29554 | 77.61355 | 35121 ft | 591 kts | 103° |
| 2026-05-04 00:52 | -54.31104 | 77.75119 | 35118 ft | 591 kts | 103° |
| 2026-05-04 00:52 | -54.32638 | 77.88887 | 35116 ft | 591 kts | 103° |
| 2026-05-04 00:53 | -54.34171 | 78.02801 | 35116 ft | 591 kts | 103° |
| 2026-05-04 00:53 | -54.35681 | 78.16656 | 35113 ft | 592 kts | 103° |
| 2026-05-04 00:54 | -54.37183 | 78.30594 | 35113 ft | 592 kts | 102° |
| 2026-05-04 00:54 | -54.38659 | 78.44451 | 35113 ft | 592 kts | 102° |
| 2026-05-04 00:55 | -54.40114 | 78.58273 | 35112 ft | 592 kts | 102° |
| 2026-05-04 00:55 | -54.41563 | 78.72197 | 35111 ft | 592 kts | 102° |
| 2026-05-04 00:56 | -54.42994 | 78.86113 | 35108 ft | 592 kts | 102° |
| 2026-05-04 00:56 | -54.44418 | 79.00127 | 35108 ft | 592 kts | 102° |
| 2026-05-04 00:57 | -54.45816 | 79.14051 | 35111 ft | 592 kts | 102° |
| 2026-05-04 00:57 | -54.47200 | 79.28012 | 35108 ft | 592 kts | 102° |
| 2026-05-04 00:58 | -54.48565 | 79.41939 | 35105 ft | 592 kts | 102° |
| 2026-05-04 00:58 | -54.49915 | 79.55896 | 35101 ft | 592 kts | 102° |
| 2026-05-04 00:59 | -54.51252 | 79.69892 | 35098 ft | 592 kts | 102° |
| 2026-05-04 00:59 | -54.52573 | 79.83901 | 35095 ft | 592 kts | 102° |
| 2026-05-04 01:00 | -54.53876 | 79.97903 | 35091 ft | 592 kts | 102° |
| 2026-05-04 01:00 | -54.55159 | 80.11861 | 35090 ft | 592 kts | 102° |
| 2026-05-04 01:01 | -54.56431 | 80.25897 | 35088 ft | 592 kts | 102° |
| 2026-05-04 01:01 | -54.57685 | 80.39908 | 35083 ft | 593 kts | 102° |
| 2026-05-04 01:02 | -54.58930 | 80.54018 | 35082 ft | 593 kts | 102° |
| 2026-05-04 01:02 | -54.60144 | 80.67969 | 35078 ft | 593 kts | 102° |
| 2026-05-04 01:03 | -54.61353 | 80.82054 | 35071 ft | 593 kts | 102° |
| 2026-05-04 01:03 | -54.62551 | 80.96215 | 35070 ft | 593 kts | 102° |
| 2026-05-04 01:04 | -54.63710 | 81.10101 | 35073 ft | 593 kts | 102° |
| 2026-05-04 01:04 | -54.64871 | 81.24235 | 35069 ft | 593 kts | 102° |
| 2026-05-04 01:05 | -54.66016 | 81.38365 | 35065 ft | 593 kts | 102° |
| 2026-05-04 01:05 | -54.66961 | 81.50193 | 35065 ft | 593 kts | 102° |
| 2026-05-04 01:06 | -54.68062 | 81.64169 | 35058 ft | 592 kts | 102° |
| 2026-05-04 01:06 | -54.69158 | 81.78303 | 35054 ft | 592 kts | 102° |
| 2026-05-04 01:07 | -54.70236 | 81.92408 | 35058 ft | 591 kts | 102° |
| 2026-05-04 01:07 | -54.71301 | 82.06578 | 35041 ft | 591 kts | 102° |
| 2026-05-04 01:08 | -54.72338 | 82.20603 | 35039 ft | 590 kts | 102° |
| 2026-05-04 01:08 | -54.73364 | 82.34699 | 35031 ft | 590 kts | 102° |
| 2026-05-04 01:09 | -54.74371 | 82.48760 | 35029 ft | 590 kts | 101° |
| 2026-05-04 01:09 | -54.75368 | 82.62931 | 35024 ft | 590 kts | 101° |
| 2026-05-04 01:10 | -54.76341 | 82.76987 | 35019 ft | 589 kts | 101° |
| 2026-05-04 01:10 | -54.77300 | 82.91099 | 35013 ft | 589 kts | 101° |
| 2026-05-04 01:11 | -54.78239 | 83.05146 | 35007 ft | 589 kts | 101° |
| 2026-05-04 01:11 | -54.79167 | 83.19280 | 35002 ft | 589 kts | 101° |
| 2026-05-04 01:12 | -54.80079 | 83.33420 | 35000 ft | 589 kts | 101° |
| 2026-05-04 01:12 | -54.80968 | 83.47473 | 34997 ft | 589 kts | 101° |
| 2026-05-04 01:13 | -54.81845 | 83.61607 | 34990 ft | 588 kts | 101° |
| 2026-05-04 01:13 | -54.82706 | 83.75744 | 34987 ft | 588 kts | 101° |
| 2026-05-04 01:14 | -54.83554 | 83.89857 | 34984 ft | 588 kts | 101° |
| 2026-05-04 01:14 | -54.84389 | 84.03897 | 34977 ft | 587 kts | 101° |
| 2026-05-04 01:15 | -54.85117 | 84.17993 | 34980 ft | 589 kts | 97° |
| 2026-05-04 01:15 | -54.85671 | 84.32132 | 34969 ft | 586 kts | 100° |
| 2026-05-04 01:16 | -54.86361 | 84.46310 | 34967 ft | 586 kts | 99° |
| 2026-05-04 01:16 | -54.86977 | 84.60334 | 34959 ft | 586 kts | 99° |
| 2026-05-04 01:17 | -54.87559 | 84.74479 | 34959 ft | 585 kts | 99° |
| 2026-05-04 01:17 | -54.88119 | 84.88563 | 34958 ft | 585 kts | 98° |
| 2026-05-04 01:18 | -54.88660 | 85.02561 | 34950 ft | 584 kts | 98° |
| 2026-05-04 01:18 | -54.89188 | 85.16641 | 34946 ft | 583 kts | 98° |
| 2026-05-04 01:19 | -54.89700 | 85.30711 | 34945 ft | 582 kts | 98° |
| 2026-05-04 01:19 | -54.90192 | 85.44714 | 34938 ft | 581 kts | 98° |
| 2026-05-04 01:20 | -54.90669 | 85.58710 | 34935 ft | 580 kts | 98° |
| 2026-05-04 01:20 | -54.91131 | 85.72767 | 34931 ft | 579 kts | 98° |
| 2026-05-04 01:21 | -54.91572 | 85.86706 | 34924 ft | 578 kts | 98° |
| 2026-05-04 01:21 | -54.91999 | 86.00649 | 34909 ft | 577 kts | 97° |
| 2026-05-04 01:22 | -54.92409 | 86.14589 | 34904 ft | 576 kts | 97° |
| 2026-05-04 01:22 | -54.92800 | 86.28427 | 34899 ft | 576 kts | 97° |
| 2026-05-04 01:23 | -54.93171 | 86.42109 | 34891 ft | 575 kts | 97° |
| 2026-05-04 01:23 | -54.93534 | 86.56089 | 34879 ft | 574 kts | 97° |
| 2026-05-04 01:24 | -54.93878 | 86.69923 | 34875 ft | 574 kts | 97° |
| 2026-05-04 01:24 | -54.94205 | 86.83738 | 34855 ft | 573 kts | 97° |
| 2026-05-04 01:25 | -54.94518 | 86.97577 | 34852 ft | 572 kts | 97° |
| 2026-05-04 01:25 | -54.94815 | 87.11434 | 34850 ft | 572 kts | 97° |
| 2026-05-04 01:26 | -54.95093 | 87.25170 | 34843 ft | 571 kts | 96° |
| 2026-05-04 01:26 | -54.95359 | 87.39061 | 34840 ft | 571 kts | 96° |
| 2026-05-04 01:27 | -54.95607 | 87.52819 | 34838 ft | 571 kts | 96° |
| 2026-05-04 01:27 | -54.95841 | 87.66647 | 34830 ft | 571 kts | 96° |
| 2026-05-04 01:28 | -54.96059 | 87.80471 | 34829 ft | 570 kts | 96° |
| 2026-05-04 01:28 | -54.96260 | 87.94237 | 34824 ft | 570 kts | 96° |
| 2026-05-04 01:29 | -54.96446 | 88.08018 | 34817 ft | 570 kts | 96° |
| 2026-05-04 01:29 | -54.96621 | 88.21822 | 34811 ft | 570 kts | 96° |
| 2026-05-04 01:30 | -54.96612 | 88.35653 | 34788 ft | 571 kts | 95° |
| 2026-05-04 01:30 | -54.96676 | 88.49411 | 34804 ft | 570 kts | 95° |
| 2026-05-04 01:31 | -54.96740 | 88.63300 | 34789 ft | 571 kts | 95° |
| 2026-05-04 01:31 | -54.96769 | 88.77011 | 34787 ft | 571 kts | 95° |
| 2026-05-04 01:32 | -54.96773 | 88.90915 | 34786 ft | 571 kts | 95° |
| 2026-05-04 01:32 | -54.96753 | 89.04691 | 34786 ft | 571 kts | 94° |
| 2026-05-04 01:33 | -54.96715 | 89.18445 | 34784 ft | 572 kts | 94° |
| 2026-05-04 01:33 | -54.96661 | 89.32262 | 34778 ft | 572 kts | 94° |
| 2026-05-04 01:34 | -54.96592 | 89.46094 | 34775 ft | 572 kts | 94° |
| 2026-05-04 01:34 | -54.96507 | 89.59925 | 34767 ft | 571 kts | 94° |
| 2026-05-04 01:35 | -54.96406 | 89.73831 | 34759 ft | 571 kts | 94° |
| 2026-05-04 01:35 | -54.96290 | 89.87573 | 34753 ft | 571 kts | 94° |
| 2026-05-04 01:36 | -54.96159 | 90.01399 | 34746 ft | 571 kts | 93° |
| 2026-05-04 01:36 | -54.96011 | 90.15278 | 34739 ft | 571 kts | 93° |
| 2026-05-04 01:37 | -54.95849 | 90.29002 | 34735 ft | 571 kts | 93° |
| 2026-05-04 01:37 | -54.95669 | 90.42864 | 34733 ft | 571 kts | 93° |
| 2026-05-04 01:38 | -54.95475 | 90.56657 | 34727 ft | 571 kts | 93° |
| 2026-05-04 01:38 | -54.95266 | 90.70394 | 34725 ft | 571 kts | 92° |
| 2026-05-04 01:39 | -54.95038 | 90.84284 | 34717 ft | 571 kts | 92° |
| 2026-05-04 01:39 | -54.94798 | 90.98047 | 34712 ft | 571 kts | 92° |
| 2026-05-04 01:40 | -54.94540 | 91.11883 | 34709 ft | 571 kts | 92° |
| 2026-05-04 01:40 | -54.94267 | 91.25716 | 34710 ft | 572 kts | 92° |
| 2026-05-04 01:41 | -54.93978 | 91.39557 | 34703 ft | 572 kts | 92° |
| 2026-05-04 01:41 | -54.93673 | 91.53370 | 34698 ft | 572 kts | 92° |
| 2026-05-04 01:42 | -54.93354 | 91.67170 | 34682 ft | 572 kts | 91° |
| 2026-05-04 01:42 | -54.93022 | 91.80812 | 34690 ft | 572 kts | 91° |
| 2026-05-04 01:43 | -54.92665 | 91.94859 | 34687 ft | 572 kts | 91° |
| 2026-05-04 01:43 | -54.92298 | 92.08663 | 34673 ft | 573 kts | 91° |
| 2026-05-04 01:44 | -54.91917 | 92.22395 | 34674 ft | 573 kts | 91° |
| 2026-05-04 01:44 | -54.91514 | 92.36371 | 34671 ft | 573 kts | 91° |
| 2026-05-04 01:45 | -54.91101 | 92.50121 | 34666 ft | 574 kts | 90° |
| 2026-05-04 01:45 | -54.90447 | 92.70930 | 34665 ft | 574 kts | 90° |
| 2026-05-04 01:46 | -54.89995 | 92.84683 | 34663 ft | 574 kts | 90° |
| 2026-05-04 01:46 | -54.89522 | 92.98580 | 34653 ft | 574 kts | 90° |
| 2026-05-04 01:47 | -54.89035 | 93.12431 | 34651 ft | 574 kts | 90° |
| 2026-05-04 01:47 | -54.88533 | 93.26272 | 34646 ft | 575 kts | 89° |
| 2026-05-04 01:48 | -54.88104 | 93.37758 | 34637 ft | 575 kts | 89° |
| 2026-05-04 01:48 | -54.87483 | 93.53902 | 34645 ft | 574 kts | 89° |
| 2026-05-04 01:49 | -54.87023 | 93.65487 | 34628 ft | 575 kts | 89° |
| 2026-05-04 01:49 | -54.86462 | 93.79293 | 34631 ft | 574 kts | 89° |
| 2026-05-04 01:50 | -54.85882 | 93.93135 | 34629 ft | 575 kts | 89° |
| 2026-05-04 01:50 | -54.85286 | 94.07002 | 34624 ft | 575 kts | 88° |
| 2026-05-04 01:51 | -54.84677 | 94.20806 | 34623 ft | 575 kts | 88° |
| 2026-05-04 01:51 | -54.84050 | 94.34653 | 34626 ft | 575 kts | 88° |
| 2026-05-04 01:52 | -54.83407 | 94.48486 | 34618 ft | 575 kts | 88° |
| 2026-05-04 01:52 | -54.82752 | 94.62250 | 34621 ft | 576 kts | 88° |
| 2026-05-04 01:53 | -54.82079 | 94.76067 | 34614 ft | 576 kts | 88° |
| 2026-05-04 01:53 | -54.81387 | 94.89921 | 34615 ft | 575 kts | 87° |
| 2026-05-04 01:54 | -54.80686 | 95.03658 | 34613 ft | 575 kts | 87° |
| 2026-05-04 01:54 | -54.79963 | 95.17510 | 34610 ft | 575 kts | 87° |
| 2026-05-04 01:55 | -54.79229 | 95.31275 | 34605 ft | 575 kts | 87° |
| 2026-05-04 01:55 | -54.78475 | 95.45107 | 34600 ft | 575 kts | 86° |
| 2026-05-04 01:56 | -54.77706 | 95.58922 | 34600 ft | 575 kts | 86° |
| 2026-05-04 01:56 | -54.76922 | 95.72713 | 34600 ft | 575 kts | 86° |
| 2026-05-04 01:57 | -54.76124 | 95.86484 | 34601 ft | 575 kts | 86° |
| 2026-05-04 01:57 | -54.75313 | 96.00198 | 34598 ft | 575 kts | 86° |
| 2026-05-04 01:58 | -54.74482 | 96.13974 | 34595 ft | 575 kts | 86° |
| 2026-05-04 01:58 | -54.73635 | 96.27760 | 34594 ft | 575 kts | 85° |
| 2026-05-04 01:59 | -54.72774 | 96.41517 | 34599 ft | 575 kts | 85° |
| 2026-05-04 01:59 | -54.71901 | 96.55209 | 34596 ft | 575 kts | 85° |
| 2026-05-04 02:00 | -54.71011 | 96.68921 | 34592 ft | 574 kts | 85° |
| 2026-05-04 02:00 | -54.70106 | 96.82615 | 34586 ft | 574 kts | 85° |
| 2026-05-04 02:01 | -54.69184 | 96.96329 | 34585 ft | 574 kts | 85° |
| 2026-05-04 02:01 | -54.68242 | 97.10105 | 34585 ft | 574 kts | 84° |
| 2026-05-04 02:02 | -54.67289 | 97.23801 | 34590 ft | 574 kts | 84° |
| 2026-05-04 02:02 | -54.66815 | 97.30538 | 34808 ft | 576 kts | 84° |
| 2026-05-04 02:02 | -54.66325 | 97.37441 | 35267 ft | 575 kts | 84° |
| 2026-05-04 02:03 | -54.65832 | 97.44369 | 35700 ft | 575 kts | 84° |
| 2026-05-04 02:03 | -54.65349 | 97.51136 | 36108 ft | 574 kts | 84° |
| 2026-05-04 02:03 | -54.64859 | 97.57955 | 36485 ft | 575 kts | 84° |
| 2026-05-04 02:03 | -54.64361 | 97.64863 | 36584 ft | 573 kts | 84° |
| 2026-05-04 02:04 | -54.63348 | 97.78390 | 36581 ft | 570 kts | 82° |
| 2026-05-04 02:04 | -54.62336 | 97.91970 | 36581 ft | 570 kts | 85° |
| 2026-05-04 02:05 | -54.61556 | 98.05581 | 36580 ft | 570 kts | 85° |
| 2026-05-04 02:05 | -54.60714 | 98.19198 | 36588 ft | 570 kts | 85° |
| 2026-05-04 02:06 | -54.59828 | 98.32710 | 36565 ft | 569 kts | 84° |
| 2026-05-04 02:06 | -54.58913 | 98.46275 | 36556 ft | 568 kts | 84° |
| 2026-05-04 02:07 | -54.57986 | 98.59781 | 36558 ft | 567 kts | 84° |
| 2026-05-04 02:07 | -54.57044 | 98.73283 | 36550 ft | 567 kts | 84° |
| 2026-05-04 02:08 | -54.56093 | 98.86704 | 36548 ft | 566 kts | 84° |
| 2026-05-04 02:08 | -54.55121 | 99.00190 | 36548 ft | 566 kts | 84° |
| 2026-05-04 02:09 | -54.54137 | 99.13641 | 36551 ft | 567 kts | 83° |
| 2026-05-04 02:09 | -54.53135 | 99.27127 | 36560 ft | 567 kts | 83° |
| 2026-05-04 02:10 | -54.52118 | 99.40608 | 36564 ft | 568 kts | 83° |
| 2026-05-04 02:10 | -54.51090 | 99.54019 | 36574 ft | 568 kts | 83° |
| 2026-05-04 02:11 | -54.50036 | 99.67570 | 36571 ft | 569 kts | 83° |
| 2026-05-04 02:11 | -54.48975 | 99.81017 | 36571 ft | 569 kts | 83° |
| 2026-05-04 02:12 | -54.47897 | 99.94484 | 36573 ft | 569 kts | 83° |
| 2026-05-04 02:12 | -54.46813 | 100.07833 | 36583 ft | 569 kts | 83° |
| 2026-05-04 02:13 | -54.45695 | 100.21398 | 36566 ft | 568 kts | 82° |
| 2026-05-04 02:13 | -54.44579 | 100.34765 | 36571 ft | 568 kts | 82° |
| 2026-05-04 02:14 | -54.43441 | 100.48200 | 36571 ft | 568 kts | 82° |
| 2026-05-04 02:14 | -54.42288 | 100.61625 | 36574 ft | 567 kts | 82° |
| 2026-05-04 02:15 | -54.41123 | 100.75017 | 36573 ft | 567 kts | 82° |
| 2026-05-04 02:15 | -54.39948 | 100.88348 | 36567 ft | 567 kts | 82° |
| 2026-05-04 02:16 | -54.38748 | 101.01787 | 36569 ft | 567 kts | 82° |
| 2026-05-04 02:16 | -54.37539 | 101.15154 | 36570 ft | 567 kts | 81° |
| 2026-05-04 02:17 | -54.36314 | 101.28515 | 36580 ft | 567 kts | 81° |
| 2026-05-04 02:17 | -54.35073 | 101.41892 | 36573 ft | 568 kts | 81° |
| 2026-05-04 02:18 | -54.33821 | 101.55222 | 36581 ft | 568 kts | 81° |
| 2026-05-04 02:18 | -54.32555 | 101.68531 | 36580 ft | 568 kts | 81° |
| 2026-05-04 02:19 | -54.31270 | 101.81881 | 36575 ft | 568 kts | 81° |
| 2026-05-04 02:19 | -54.29964 | 101.95286 | 36584 ft | 568 kts | 81° |
| 2026-05-04 02:20 | -54.28659 | 102.08520 | 36582 ft | 567 kts | 81° |
| 2026-05-04 02:20 | -54.27321 | 102.21928 | 36578 ft | 567 kts | 80° |
| 2026-05-04 02:21 | -54.25983 | 102.35182 | 36583 ft | 567 kts | 80° |
| 2026-05-04 02:21 | -54.24629 | 102.48450 | 36580 ft | 567 kts | 80° |
| 2026-05-04 02:22 | -54.23252 | 102.61788 | 36586 ft | 567 kts | 80° |
| 2026-05-04 02:22 | -54.21873 | 102.74992 | 36588 ft | 567 kts | 80° |
| 2026-05-04 02:23 | -54.20482 | 102.88165 | 36589 ft | 568 kts | 79° |
| 2026-05-04 02:23 | -54.19049 | 103.01581 | 36587 ft | 568 kts | 79° |
| 2026-05-04 02:24 | -54.17623 | 103.14789 | 36592 ft | 568 kts | 79° |
| 2026-05-04 02:24 | -54.16177 | 103.28042 | 36588 ft | 568 kts | 79° |
| 2026-05-04 02:25 | -54.14709 | 103.41358 | 36592 ft | 568 kts | 79° |
| 2026-05-04 02:25 | -54.13240 | 103.54535 | 36595 ft | 568 kts | 79° |
| 2026-05-04 02:26 | -54.11753 | 103.67734 | 36591 ft | 568 kts | 79° |
| 2026-05-04 02:26 | -54.10248 | 103.80954 | 36595 ft | 568 kts | 79° |
| 2026-05-04 02:27 | -54.08733 | 103.94130 | 36598 ft | 568 kts | 78° |
| 2026-05-04 02:27 | -54.07202 | 104.07309 | 36599 ft | 568 kts | 78° |
| 2026-05-04 02:28 | -54.05651 | 104.20549 | 36599 ft | 568 kts | 78° |
| 2026-05-04 02:28 | -54.04098 | 104.33749 | 36602 ft | 568 kts | 78° |
| 2026-05-04 02:29 | -54.02599 | 104.46868 | 36600 ft | 568 kts | 80° |
| 2026-05-04 02:29 | -54.01360 | 104.60170 | 36599 ft | 568 kts | 81° |
| 2026-05-04 02:30 | -54.00131 | 104.73419 | 36598 ft | 568 kts | 81° |
| 2026-05-04 02:30 | -53.98866 | 104.86629 | 36599 ft | 569 kts | 81° |
| 2026-05-04 02:31 | -53.97783 | 104.97704 | 36601 ft | 569 kts | 80° |
| 2026-05-04 02:31 | -53.96469 | 105.10935 | 36601 ft | 569 kts | 80° |
| 2026-05-04 02:32 | -53.95136 | 105.24192 | 36607 ft | 569 kts | 80° |
| 2026-05-04 02:32 | -53.93789 | 105.37435 | 36602 ft | 569 kts | 80° |
| 2026-05-04 02:33 | -53.92432 | 105.50625 | 36607 ft | 569 kts | 80° |
| 2026-05-04 02:33 | -53.91075 | 105.63672 | 36605 ft | 569 kts | 79° |
| 2026-05-04 02:34 | -53.89680 | 105.76942 | 36609 ft | 569 kts | 79° |
| 2026-05-04 02:34 | -53.88279 | 105.90116 | 36606 ft | 568 kts | 79° |
| 2026-05-04 02:35 | -53.86867 | 106.03248 | 36607 ft | 568 kts | 79° |
| 2026-05-04 02:35 | -53.85429 | 106.16475 | 36608 ft | 568 kts | 79° |
| 2026-05-04 02:36 | -53.83984 | 106.29628 | 36612 ft | 568 kts | 79° |
| 2026-05-04 02:36 | -53.82529 | 106.42742 | 36613 ft | 568 kts | 79° |
| 2026-05-04 02:37 | -53.81051 | 106.55907 | 36610 ft | 568 kts | 79° |
| 2026-05-04 02:37 | -53.79565 | 106.69018 | 36611 ft | 568 kts | 78° |
| 2026-05-04 02:38 | -53.78059 | 106.82170 | 36615 ft | 568 kts | 78° |
| 2026-05-04 02:38 | -53.76543 | 106.95272 | 36609 ft | 568 kts | 78° |
| 2026-05-04 02:39 | -53.75012 | 107.08364 | 36622 ft | 568 kts | 78° |
| 2026-05-04 02:39 | -53.73468 | 107.21442 | 36612 ft | 568 kts | 78° |
| 2026-05-04 02:40 | -53.71916 | 107.34462 | 36617 ft | 568 kts | 78° |
| 2026-05-04 02:40 | -53.70341 | 107.47540 | 36618 ft | 568 kts | 78° |
| 2026-05-04 02:41 | -53.68749 | 107.60634 | 36623 ft | 568 kts | 78° |
| 2026-05-04 02:41 | -53.67146 | 107.73688 | 36618 ft | 568 kts | 77° |
| 2026-05-04 02:42 | -53.65539 | 107.86656 | 36618 ft | 568 kts | 77° |
| 2026-05-04 02:42 | -53.63899 | 107.99759 | 36624 ft | 568 kts | 77° |
| 2026-05-04 02:43 | -53.62265 | 108.12699 | 36623 ft | 568 kts | 77° |
| 2026-05-04 02:43 | -53.60613 | 108.25653 | 36625 ft | 568 kts | 77° |
| 2026-05-04 02:44 | -53.58944 | 108.38628 | 36623 ft | 568 kts | 77° |
| 2026-05-04 02:44 | -53.57253 | 108.51646 | 36622 ft | 568 kts | 77° |
| 2026-05-04 02:45 | -53.55560 | 108.64566 | 36638 ft | 568 kts | 77° |
| 2026-05-04 02:45 | -53.53850 | 108.77497 | 36628 ft | 568 kts | 76° |
| 2026-05-04 02:46 | -53.52115 | 108.90501 | 36637 ft | 568 kts | 76° |
| 2026-05-04 02:46 | -53.50375 | 109.03431 | 36639 ft | 568 kts | 76° |
| 2026-05-04 02:47 | -53.48620 | 109.16353 | 36631 ft | 568 kts | 76° |
| 2026-05-04 02:47 | -53.46851 | 109.29262 | 36641 ft | 568 kts | 76° |
| 2026-05-04 02:48 | -53.45076 | 109.42110 | 36626 ft | 568 kts | 76° |
| 2026-05-04 02:48 | -53.43263 | 109.55118 | 36625 ft | 568 kts | 76° |
| 2026-05-04 02:49 | -53.41461 | 109.67936 | 36631 ft | 568 kts | 76° |
| 2026-05-04 02:49 | -53.39630 | 109.80854 | 36623 ft | 568 kts | 75° |
| 2026-05-04 02:50 | -53.37799 | 109.93657 | 36639 ft | 568 kts | 75° |
| 2026-05-04 02:50 | -53.35946 | 110.06512 | 36641 ft | 568 kts | 75° |
| 2026-05-04 02:51 | -53.34076 | 110.19377 | 36638 ft | 568 kts | 75° |
| 2026-05-04 02:51 | -53.32195 | 110.32205 | 36642 ft | 568 kts | 75° |
| 2026-05-04 02:52 | -53.30300 | 110.45030 | 36643 ft | 568 kts | 75° |
| 2026-05-04 02:52 | -53.28393 | 110.57830 | 36645 ft | 567 kts | 75° |
| 2026-05-04 02:53 | -53.26475 | 110.70603 | 36644 ft | 567 kts | 75° |
| 2026-05-04 02:53 | -53.24547 | 110.83338 | 36646 ft | 567 kts | 74° |
| 2026-05-04 02:54 | -53.22598 | 110.96111 | 36643 ft | 567 kts | 74° |
| 2026-05-04 02:54 | -53.20639 | 111.08855 | 36645 ft | 567 kts | 74° |
| 2026-05-04 02:55 | -53.17664 | 111.28004 | 36645 ft | 567 kts | 74° |
| 2026-05-04 02:56 | -53.15676 | 111.40685 | 36649 ft | 567 kts | 74° |
| 2026-05-04 02:56 | -53.13669 | 111.53386 | 36649 ft | 567 kts | 73° |
| 2026-05-04 02:57 | -53.11651 | 111.66090 | 36650 ft | 567 kts | 73° |
| 2026-05-04 02:57 | -53.09634 | 111.78736 | 36650 ft | 567 kts | 73° |
| 2026-05-04 02:58 | -53.07633 | 111.91419 | 36653 ft | 567 kts | 76° |
| 2026-05-04 02:58 | -53.06035 | 112.04281 | 36652 ft | 568 kts | 78° |
| 2026-05-04 02:59 | -53.04485 | 112.17137 | 36654 ft | 568 kts | 77° |
| 2026-05-04 02:59 | -53.02875 | 112.30028 | 36652 ft | 568 kts | 77° |
| 2026-05-04 03:00 | -53.01249 | 112.42820 | 36654 ft | 568 kts | 77° |
| 2026-05-04 03:00 | -52.99588 | 112.55691 | 36654 ft | 568 kts | 77° |
| 2026-05-04 03:01 | -52.97914 | 112.68522 | 36657 ft | 568 kts | 76° |
| 2026-05-04 03:01 | -52.96235 | 112.81279 | 36657 ft | 568 kts | 76° |
| 2026-05-04 03:02 | -52.94535 | 112.94072 | 36655 ft | 568 kts | 76° |
| 2026-05-04 03:02 | -52.92818 | 113.06887 | 36653 ft | 568 kts | 76° |
| 2026-05-04 03:03 | -52.91093 | 113.19643 | 36657 ft | 568 kts | 76° |
| 2026-05-04 03:03 | -52.89351 | 113.32418 | 36650 ft | 568 kts | 76° |
| 2026-05-04 03:04 | -52.87592 | 113.45202 | 36657 ft | 568 kts | 76° |
| 2026-05-04 03:04 | -52.85820 | 113.57979 | 36649 ft | 568 kts | 76° |
| 2026-05-04 03:05 | -52.84059 | 113.70560 | 36657 ft | 568 kts | 75° |
| 2026-05-04 03:05 | -52.82248 | 113.83394 | 36650 ft | 568 kts | 75° |
| 2026-05-04 03:06 | -52.80445 | 113.96068 | 36656 ft | 568 kts | 75° |
| 2026-05-04 03:06 | -52.78615 | 114.08824 | 36656 ft | 569 kts | 75° |
| 2026-05-04 03:07 | -52.76780 | 114.21502 | 36658 ft | 569 kts | 75° |
| 2026-05-04 03:07 | -52.74934 | 114.34158 | 36661 ft | 569 kts | 75° |
| 2026-05-04 03:08 | -52.73065 | 114.46866 | 36661 ft | 569 kts | 75° |
| 2026-05-04 03:08 | -52.71179 | 114.59593 | 36659 ft | 569 kts | 75° |
| 2026-05-04 03:09 | -52.69286 | 114.72256 | 36656 ft | 569 kts | 74° |
| 2026-05-04 03:09 | -52.67371 | 114.84967 | 36655 ft | 569 kts | 74° |
| 2026-05-04 03:10 | -52.65468 | 114.97504 | 36657 ft | 569 kts | 74° |
| 2026-05-04 03:10 | -52.63517 | 115.10248 | 36658 ft | 569 kts | 74° |
| 2026-05-04 03:11 | -52.61570 | 115.22871 | 36656 ft | 569 kts | 74° |
| 2026-05-04 03:11 | -52.59613 | 115.35463 | 36657 ft | 569 kts | 73° |
| 2026-05-04 03:12 | -52.57975 | 115.45926 | 36658 ft | 570 kts | 73° |
| 2026-05-04 03:12 | -52.55648 | 115.60678 | 36659 ft | 570 kts | 73° |
| 2026-05-04 03:13 | -52.53646 | 115.73264 | 36655 ft | 570 kts | 73° |
| 2026-05-04 03:13 | -52.51624 | 115.85879 | 36654 ft | 570 kts | 73° |
| 2026-05-04 03:14 | -52.49929 | 115.96382 | 36651 ft | 570 kts | 73° |
| 2026-05-04 03:14 | -52.47909 | 116.08817 | 36648 ft | 570 kts | 73° |
| 2026-05-04 03:15 | -52.45843 | 116.21437 | 36655 ft | 570 kts | 73° |
| 2026-05-04 03:15 | -52.43765 | 116.34041 | 36648 ft | 570 kts | 73° |
| 2026-05-04 03:16 | -52.41686 | 116.46552 | 36656 ft | 571 kts | 72° |
| 2026-05-04 03:16 | -52.39598 | 116.59032 | 36660 ft | 571 kts | 72° |
| 2026-05-04 03:17 | -52.37484 | 116.71578 | 36660 ft | 571 kts | 72° |
| 2026-05-04 03:17 | -52.35356 | 116.84109 | 36657 ft | 571 kts | 72° |
| 2026-05-04 03:18 | -52.33228 | 116.96558 | 36654 ft | 571 kts | 72° |
| 2026-05-04 03:18 | -52.31068 | 117.09097 | 36653 ft | 571 kts | 72° |
| 2026-05-04 03:19 | -52.28904 | 117.21579 | 36649 ft | 571 kts | 72° |
| 2026-05-04 03:19 | -52.26737 | 117.33985 | 36655 ft | 571 kts | 72° |
| 2026-05-04 03:20 | -52.24543 | 117.46456 | 36656 ft | 571 kts | 71° |
| 2026-05-04 03:20 | -52.22339 | 117.58902 | 36657 ft | 572 kts | 71° |
| 2026-05-04 03:21 | -52.20121 | 117.71340 | 36656 ft | 572 kts | 71° |
| 2026-05-04 03:21 | -52.17888 | 117.83778 | 36666 ft | 572 kts | 71° |
| 2026-05-04 03:22 | -52.15633 | 117.96251 | 36666 ft | 572 kts | 71° |
| 2026-05-04 03:22 | -52.13375 | 118.08657 | 36662 ft | 572 kts | 71° |
| 2026-05-04 03:23 | -52.11112 | 118.21004 | 36663 ft | 571 kts | 71° |
| 2026-05-04 03:23 | -52.08822 | 118.33416 | 36665 ft | 571 kts | 71° |
| 2026-05-04 03:24 | -52.06532 | 118.45746 | 36656 ft | 571 kts | 71° |
| 2026-05-04 03:24 | -52.04219 | 118.58114 | 36657 ft | 571 kts | 70° |
| 2026-05-04 03:25 | -52.01900 | 118.70438 | 36656 ft | 571 kts | 70° |
| 2026-05-04 03:25 | -51.99564 | 118.82767 | 36660 ft | 571 kts | 70° |
| 2026-05-04 03:26 | -51.97225 | 118.95031 | 36661 ft | 571 kts | 70° |
| 2026-05-04 03:26 | -51.94864 | 119.07334 | 36661 ft | 571 kts | 70° |
| 2026-05-04 03:27 | -51.92489 | 119.19625 | 36664 ft | 571 kts | 70° |
| 2026-05-04 03:27 | -51.90104 | 119.31893 | 36666 ft | 571 kts | 70° |
| 2026-05-04 03:28 | -51.87697 | 119.44194 | 36662 ft | 571 kts | 70° |
| 2026-05-04 03:28 | -51.85288 | 119.56425 | 36658 ft | 571 kts | 70° |
| 2026-05-04 03:29 | -51.82867 | 119.68646 | 36658 ft | 572 kts | 69° |
| 2026-05-04 03:29 | -51.80426 | 119.80884 | 36664 ft | 572 kts | 69° |
| 2026-05-04 03:30 | -51.77974 | 119.93105 | 36663 ft | 572 kts | 69° |
| 2026-05-04 03:30 | -51.75510 | 120.05307 | 36661 ft | 572 kts | 69° |
| 2026-05-04 03:31 | -51.73028 | 120.17522 | 36659 ft | 572 kts | 69° |
| 2026-05-04 03:31 | -51.70543 | 120.29674 | 36655 ft | 572 kts | 69° |
| 2026-05-04 03:32 | -51.68041 | 120.41840 | 36670 ft | 572 kts | 69° |
| 2026-05-04 03:32 | -51.65525 | 120.54002 | 36665 ft | 572 kts | 69° |
| 2026-05-04 03:33 | -51.63004 | 120.66152 | 36659 ft | 572 kts | 69° |
| 2026-05-04 03:33 | -51.60481 | 120.78261 | 36657 ft | 572 kts | 69° |
| 2026-05-04 03:34 | -51.57884 | 120.90368 | 36653 ft | 571 kts | 66° |
| 2026-05-04 03:34 | -51.55221 | 121.02447 | 36653 ft | 572 kts | 69° |
| 2026-05-04 03:35 | -51.52705 | 121.14519 | 36656 ft | 572 kts | 69° |
| 2026-05-04 03:35 | -51.50138 | 121.26613 | 36660 ft | 572 kts | 68° |
| 2026-05-04 03:36 | -51.47544 | 121.38678 | 36664 ft | 572 kts | 68° |
| 2026-05-04 03:36 | -51.44927 | 121.50741 | 36664 ft | 572 kts | 68° |
| 2026-05-04 03:37 | -51.42304 | 121.62741 | 36666 ft | 572 kts | 68° |
| 2026-05-04 03:37 | -51.39646 | 121.74820 | 36660 ft | 571 kts | 68° |
| 2026-05-04 03:38 | -51.36987 | 121.86831 | 36657 ft | 571 kts | 68° |
| 2026-05-04 03:38 | -51.34334 | 121.98753 | 36659 ft | 571 kts | 67° |
| 2026-05-04 03:39 | -51.31661 | 122.10692 | 36661 ft | 571 kts | 67° |
| 2026-05-04 03:39 | -51.28976 | 122.22619 | 36656 ft | 570 kts | 67° |
| 2026-05-04 03:40 | -51.26280 | 122.34524 | 36658 ft | 570 kts | 67° |
| 2026-05-04 03:40 | -51.23574 | 122.46408 | 36654 ft | 570 kts | 67° |
| 2026-05-04 03:41 | -51.20838 | 122.58360 | 36654 ft | 570 kts | 67° |
| 2026-05-04 03:41 | -51.18114 | 122.70186 | 36651 ft | 570 kts | 66° |
| 2026-05-04 03:42 | -51.15393 | 122.81939 | 36654 ft | 570 kts | 66° |
| 2026-05-04 03:42 | -51.12632 | 122.93798 | 36659 ft | 570 kts | 66° |
| 2026-05-04 03:43 | -51.09857 | 123.05651 | 36660 ft | 569 kts | 66° |
| 2026-05-04 03:43 | -51.07093 | 123.17393 | 36659 ft | 569 kts | 66° |
| 2026-05-04 03:44 | -51.04310 | 123.29148 | 36659 ft | 569 kts | 66° |
| 2026-05-04 03:44 | -51.01524 | 123.40855 | 36656 ft | 568 kts | 66° |
| 2026-05-04 03:45 | -50.98714 | 123.52599 | 36650 ft | 568 kts | 66° |
| 2026-05-04 03:45 | -50.95915 | 123.64238 | 36650 ft | 567 kts | 66° |
| 2026-05-04 03:46 | -50.93089 | 123.75923 | 36657 ft | 567 kts | 65° |
| 2026-05-04 03:46 | -50.90234 | 123.87661 | 36655 ft | 567 kts | 65° |
| 2026-05-04 03:47 | -50.87382 | 123.99331 | 36657 ft | 568 kts | 65° |
| 2026-05-04 03:47 | -50.84543 | 124.10884 | 36660 ft | 568 kts | 65° |
| 2026-05-04 03:48 | -50.81654 | 124.22579 | 36666 ft | 568 kts | 65° |
| 2026-05-04 03:48 | -50.78771 | 124.34187 | 36654 ft | 567 kts | 65° |
| 2026-05-04 03:49 | -50.75881 | 124.45766 | 36657 ft | 567 kts | 65° |
| 2026-05-04 03:49 | -50.72982 | 124.57320 | 36653 ft | 566 kts | 64° |
| 2026-05-04 03:50 | -50.70075 | 124.68844 | 36647 ft | 566 kts | 64° |
| 2026-05-04 03:50 | -50.67159 | 124.80347 | 36652 ft | 566 kts | 64° |
| 2026-05-04 03:51 | -50.64215 | 124.91896 | 36651 ft | 567 kts | 64° |
| 2026-05-04 03:51 | -50.61257 | 125.03445 | 36653 ft | 567 kts | 64° |
| 2026-05-04 03:52 | -50.58300 | 125.14931 | 36657 ft | 567 kts | 64° |
| 2026-05-04 03:52 | -50.55816 | 125.24537 | 36655 ft | 567 kts | 64° |
| 2026-05-04 03:53 | -50.52344 | 125.37891 | 36671 ft | 568 kts | 64° |
| 2026-05-04 03:53 | -50.49371 | 125.49268 | 36662 ft | 568 kts | 64° |
| 2026-05-04 03:54 | -50.46361 | 125.60725 | 36660 ft | 567 kts | 64° |
| 2026-05-04 03:54 | -50.43343 | 125.72159 | 36661 ft | 568 kts | 64° |
| 2026-05-04 03:55 | -50.40829 | 125.81636 | 36665 ft | 567 kts | 63° |
| 2026-05-04 03:55 | -50.37780 | 125.93083 | 36662 ft | 567 kts | 63° |
| 2026-05-04 03:56 | -50.34732 | 126.04469 | 36661 ft | 566 kts | 63° |
| 2026-05-04 03:56 | -50.31685 | 126.15794 | 36658 ft | 565 kts | 63° |
| 2026-05-04 03:57 | -50.28610 | 126.27166 | 36655 ft | 565 kts | 63° |
| 2026-05-04 03:57 | -50.25559 | 126.38394 | 36654 ft | 565 kts | 63° |
| 2026-05-04 03:58 | -50.20936 | 126.55306 | 36653 ft | 565 kts | 63° |
| 2026-05-04 03:58 | -50.17816 | 126.66649 | 36664 ft | 566 kts | 63° |
| 2026-05-04 03:59 | -50.14690 | 126.77962 | 36667 ft | 567 kts | 63° |
| 2026-05-04 03:59 | -50.11573 | 126.89190 | 36662 ft | 566 kts | 63° |
| 2026-05-04 04:00 | -50.08431 | 127.00453 | 36659 ft | 566 kts | 63° |
| 2026-05-04 04:00 | -50.05287 | 127.11668 | 36658 ft | 566 kts | 63° |
| 2026-05-04 04:01 | -50.02141 | 127.22839 | 36660 ft | 565 kts | 62° |
| 2026-05-04 04:01 | -49.98977 | 127.34019 | 36660 ft | 565 kts | 62° |
| 2026-05-04 04:02 | -49.95795 | 127.45211 | 36658 ft | 565 kts | 62° |
| 2026-05-04 04:02 | -49.92624 | 127.56314 | 36661 ft | 564 kts | 62° |
| 2026-05-04 04:03 | -49.89420 | 127.67476 | 36672 ft | 563 kts | 62° |
| 2026-05-04 04:03 | -49.86229 | 127.78544 | 36662 ft | 563 kts | 62° |
| 2026-05-04 04:04 | -49.83033 | 127.89579 | 36661 ft | 561 kts | 62° |
| 2026-05-04 04:04 | -49.79831 | 128.00581 | 36665 ft | 561 kts | 62° |
| 2026-05-04 04:05 | -49.76599 | 128.11638 | 36661 ft | 560 kts | 62° |
| 2026-05-04 04:05 | -49.73380 | 128.22600 | 36657 ft | 559 kts | 62° |
| 2026-05-04 04:06 | -49.70155 | 128.33533 | 36656 ft | 558 kts | 62° |
| 2026-05-04 04:06 | -49.66937 | 128.44390 | 36658 ft | 558 kts | 62° |
| 2026-05-04 04:07 | -49.63707 | 128.55243 | 36658 ft | 557 kts | 62° |
| 2026-05-04 04:07 | -49.60461 | 128.66100 | 36679 ft | 556 kts | 62° |
| 2026-05-04 04:08 | -49.57213 | 128.76914 | 36668 ft | 556 kts | 62° |
| 2026-05-04 04:08 | -49.53949 | 128.87733 | 36676 ft | 556 kts | 61° |
| 2026-05-04 04:09 | -49.50693 | 128.98480 | 36686 ft | 555 kts | 61° |
| 2026-05-04 04:09 | -49.47423 | 129.09226 | 36694 ft | 555 kts | 61° |
| 2026-05-04 04:10 | -49.44139 | 129.19971 | 36697 ft | 554 kts | 61° |
| 2026-05-04 04:10 | -49.40864 | 129.30665 | 36708 ft | 553 kts | 61° |
| 2026-05-04 04:11 | -49.37593 | 129.41310 | 36704 ft | 552 kts | 61° |
| 2026-05-04 04:11 | -49.34299 | 129.51987 | 36707 ft | 551 kts | 61° |
| 2026-05-04 04:12 | -49.31015 | 129.62525 | 36706 ft | 550 kts | 63° |
| 2026-05-04 04:12 | -49.27997 | 129.73298 | 36702 ft | 549 kts | 64° |
| 2026-05-04 04:13 | -49.24959 | 129.84016 | 36717 ft | 548 kts | 63° |
| 2026-05-04 04:13 | -49.21899 | 129.94627 | 36713 ft | 547 kts | 63° |
| 2026-05-04 04:14 | -49.18799 | 130.05291 | 36712 ft | 546 kts | 63° |
| 2026-05-04 04:14 | -49.15709 | 130.15852 | 36713 ft | 545 kts | 63° |
| 2026-05-04 04:15 | -49.12603 | 130.26417 | 36710 ft | 545 kts | 63° |
| 2026-05-04 04:15 | -49.09493 | 130.36952 | 36714 ft | 544 kts | 63° |
| 2026-05-04 04:16 | -49.06367 | 130.47493 | 36720 ft | 544 kts | 63° |
| 2026-05-04 04:16 | -49.03238 | 130.58000 | 36705 ft | 543 kts | 63° |
| 2026-05-04 04:17 | -49.00120 | 130.68427 | 36739 ft | 543 kts | 63° |
| 2026-05-04 04:17 | -48.96994 | 130.78837 | 36731 ft | 542 kts | 63° |
| 2026-05-04 04:18 | -48.93854 | 130.89247 | 36737 ft | 541 kts | 63° |
| 2026-05-04 04:18 | -48.90699 | 130.99664 | 36732 ft | 540 kts | 62° |
| 2026-05-04 04:19 | -48.87555 | 131.10000 | 36737 ft | 539 kts | 62° |
| 2026-05-04 04:19 | -48.84399 | 131.20331 | 36737 ft | 538 kts | 62° |
| 2026-05-04 04:20 | -48.81253 | 131.30588 | 36744 ft | 536 kts | 62° |
| 2026-05-04 04:20 | -48.78103 | 131.40817 | 36737 ft | 535 kts | 62° |
| 2026-05-04 04:21 | -48.74942 | 131.51037 | 36750 ft | 534 kts | 62° |
| 2026-05-04 04:21 | -48.71788 | 131.61193 | 36745 ft | 534 kts | 62° |
| 2026-05-04 04:22 | -48.68635 | 131.71304 | 36756 ft | 533 kts | 62° |
| 2026-05-04 04:22 | -48.65473 | 131.81405 | 36747 ft | 532 kts | 62° |
| 2026-05-04 04:23 | -48.62286 | 131.91545 | 36752 ft | 531 kts | 62° |
| 2026-05-04 04:23 | -48.59121 | 132.01572 | 36740 ft | 530 kts | 62° |
| 2026-05-04 04:24 | -48.55924 | 132.11661 | 36747 ft | 529 kts | 62° |
| 2026-05-04 04:24 | -48.52747 | 132.21646 | 36743 ft | 528 kts | 62° |
| 2026-05-04 04:25 | -48.49570 | 132.31593 | 36752 ft | 527 kts | 62° |
| 2026-05-04 04:25 | -48.46383 | 132.41530 | 36747 ft | 526 kts | 62° |
| 2026-05-04 04:26 | -48.43184 | 132.51466 | 36746 ft | 526 kts | 62° |
| 2026-05-04 04:26 | -48.41598 | 132.56384 | 36905 ft | 526 kts | 60° |
| 2026-05-04 04:26 | -48.39993 | 132.61358 | 36707 ft | 534 kts | 59° |
| 2026-05-04 04:27 | -48.36695 | 132.71502 | 36768 ft | 537 kts | 59° |
| 2026-05-04 04:27 | -48.33409 | 132.81586 | 36771 ft | 537 kts | 59° |
| 2026-05-04 04:28 | -48.30130 | 132.91613 | 36772 ft | 536 kts | 59° |
| 2026-05-04 04:28 | -48.26815 | 133.01709 | 36774 ft | 536 kts | 59° |
| 2026-05-04 04:29 | -48.23510 | 133.11732 | 36774 ft | 536 kts | 59° |
| 2026-05-04 04:29 | -48.20199 | 133.21738 | 36781 ft | 536 kts | 59° |
| 2026-05-04 04:30 | -48.16897 | 133.31676 | 36782 ft | 536 kts | 59° |
| 2026-05-04 04:30 | -48.13570 | 133.41650 | 36788 ft | 535 kts | 59° |
| 2026-05-04 04:31 | -48.10228 | 133.51631 | 36791 ft | 535 kts | 59° |
| 2026-05-04 04:31 | -48.06925 | 133.61455 | 36796 ft | 535 kts | 59° |
| 2026-05-04 04:32 | -48.03580 | 133.71370 | 36799 ft | 535 kts | 59° |
| 2026-05-04 04:32 | -48.00215 | 133.81304 | 36800 ft | 534 kts | 59° |
| 2026-05-04 04:33 | -47.96864 | 133.91158 | 36797 ft | 533 kts | 59° |
| 2026-05-04 04:33 | -47.93505 | 134.00999 | 36797 ft | 533 kts | 59° |
| 2026-05-04 04:34 | -47.90139 | 134.10821 | 36799 ft | 532 kts | 59° |
| 2026-05-04 04:34 | -47.86744 | 134.20692 | 36801 ft | 532 kts | 59° |
| 2026-05-04 04:35 | -47.83368 | 134.30471 | 36805 ft | 532 kts | 59° |
| 2026-05-04 04:35 | -47.80541 | 134.38630 | 36807 ft | 531 kts | 59° |
| 2026-05-04 04:36 | -47.77161 | 134.48352 | 36807 ft | 531 kts | 59° |
| 2026-05-04 04:36 | -47.73744 | 134.58145 | 36814 ft | 530 kts | 59° |
| 2026-05-04 04:37 | -47.66947 | 134.77515 | 36815 ft | 530 kts | 59° |
| 2026-05-04 04:38 | -47.63540 | 134.87172 | 36819 ft | 530 kts | 59° |
| 2026-05-04 04:38 | -47.60117 | 134.96840 | 36819 ft | 529 kts | 59° |
| 2026-05-04 04:39 | -47.56677 | 135.06515 | 36823 ft | 529 kts | 59° |
| 2026-05-04 04:39 | -47.53238 | 135.16157 | 36820 ft | 529 kts | 59° |
| 2026-05-04 04:40 | -47.49807 | 135.25738 | 36833 ft | 529 kts | 59° |
| 2026-05-04 04:40 | -47.46386 | 135.35258 | 36838 ft | 528 kts | 59° |
| 2026-05-04 04:41 | -47.42930 | 135.44840 | 36822 ft | 528 kts | 59° |
| 2026-05-04 04:41 | -47.39475 | 135.54386 | 36828 ft | 528 kts | 59° |
| 2026-05-04 04:42 | -47.35999 | 135.63955 | 36831 ft | 527 kts | 59° |
| 2026-05-04 04:42 | -47.32523 | 135.73489 | 36833 ft | 527 kts | 59° |
| 2026-05-04 04:43 | -47.29066 | 135.82936 | 36836 ft | 527 kts | 59° |
| 2026-05-04 04:43 | -47.25589 | 135.92407 | 36829 ft | 526 kts | 59° |
| 2026-05-04 04:44 | -47.22084 | 136.01917 | 36834 ft | 526 kts | 59° |
| 2026-05-04 04:44 | -47.18600 | 136.11340 | 36840 ft | 525 kts | 59° |
| 2026-05-04 04:45 | -47.15096 | 136.20779 | 36833 ft | 525 kts | 59° |
| 2026-05-04 04:47 | -47.02849 | 136.53578 | 36840 ft | 523 kts | 59° |
| 2026-05-04 04:47 | -46.98953 | 136.62540 | 36839 ft | 521 kts | 54° |
| 2026-05-04 04:48 | -46.94901 | 136.71325 | 36836 ft | 521 kts | 54° |
| 2026-05-04 04:49 | -46.84791 | 136.93324 | 36846 ft | 521 kts | 54° |
| 2026-05-04 04:49 | -46.80726 | 137.02085 | 36847 ft | 521 kts | 54° |
| 2026-05-04 04:50 | -46.76652 | 137.10837 | 36847 ft | 521 kts | 54° |
| 2026-05-04 04:50 | -46.72580 | 137.19557 | 36851 ft | 522 kts | 54° |
| 2026-05-04 04:51 | -46.68495 | 137.28276 | 36851 ft | 521 kts | 54° |
| 2026-05-04 04:51 | -46.64402 | 137.36987 | 36854 ft | 521 kts | 54° |
| 2026-05-04 04:52 | -46.60302 | 137.45685 | 36850 ft | 521 kts | 54° |
| 2026-05-04 04:52 | -46.56204 | 137.54350 | 36855 ft | 521 kts | 55° |
| 2026-05-04 04:53 | -46.52088 | 137.63028 | 36852 ft | 521 kts | 55° |
| 2026-05-04 04:53 | -46.47962 | 137.71699 | 36851 ft | 521 kts | 55° |
| 2026-05-04 04:54 | -46.43832 | 137.80353 | 36853 ft | 521 kts | 55° |
| 2026-05-04 04:54 | -46.39714 | 137.88955 | 36853 ft | 521 kts | 55° |
| 2026-05-04 04:55 | -46.35592 | 137.97537 | 36854 ft | 521 kts | 55° |
| 2026-05-04 04:55 | -46.31421 | 138.06195 | 36852 ft | 521 kts | 55° |
| 2026-05-04 04:56 | -46.27272 | 138.14783 | 36857 ft | 521 kts | 55° |
| 2026-05-04 04:56 | -46.23115 | 138.23358 | 36856 ft | 521 kts | 55° |
| 2026-05-04 04:57 | -46.18968 | 138.31890 | 36853 ft | 521 kts | 55° |
| 2026-05-04 04:57 | -46.14792 | 138.40452 | 36853 ft | 520 kts | 55° |
| 2026-05-04 04:58 | -46.10624 | 138.48974 | 36855 ft | 520 kts | 55° |
| 2026-05-04 04:58 | -46.06455 | 138.57471 | 36855 ft | 520 kts | 55° |
| 2026-05-04 04:59 | -46.02315 | 138.65884 | 36853 ft | 520 kts | 55° |
| 2026-05-04 04:59 | -45.98125 | 138.74374 | 36850 ft | 520 kts | 55° |
| 2026-05-04 05:00 | -45.93918 | 138.82872 | 36851 ft | 519 kts | 55° |
| 2026-05-04 05:01 | -45.87625 | 138.95535 | 36850 ft | 519 kts | 55° |
| 2026-05-04 05:01 | -45.83448 | 139.03910 | 36832 ft | 519 kts | 55° |
| 2026-05-04 05:02 | -45.79224 | 139.12354 | 36832 ft | 518 kts | 55° |
| 2026-05-04 05:02 | -45.75034 | 139.20705 | 36834 ft | 518 kts | 55° |
| 2026-05-04 05:03 | -45.70835 | 139.29049 | 36827 ft | 517 kts | 55° |
| 2026-05-04 05:04 | -45.62389 | 139.45757 | 36829 ft | 516 kts | 55° |
| 2026-05-04 05:04 | -45.58169 | 139.54070 | 36826 ft | 516 kts | 55° |
| 2026-05-04 05:06 | -45.41323 | 139.87009 | 36814 ft | 513 kts | 55° |
| 2026-05-04 05:07 | -45.37101 | 139.95206 | 36809 ft | 513 kts | 55° |
| 2026-05-04 05:07 | -45.32859 | 140.03418 | 36799 ft | 513 kts | 54° |
| 2026-05-04 05:09 | -45.13888 | 140.39851 | 36789 ft | 511 kts | 54° |
| 2026-05-04 05:10 | -45.09648 | 140.47931 | 36783 ft | 510 kts | 54° |
| 2026-05-04 05:10 | -45.05411 | 140.55982 | 36772 ft | 510 kts | 54° |
| 2026-05-04 05:11 | -45.01174 | 140.64012 | 36766 ft | 510 kts | 54° |
| 2026-05-04 05:11 | -44.96932 | 140.72027 | 36770 ft | 510 kts | 54° |
| 2026-05-04 05:12 | -44.92684 | 140.80031 | 36767 ft | 509 kts | 54° |
| 2026-05-04 05:12 | -44.88400 | 140.88081 | 36768 ft | 509 kts | 53° |
| 2026-05-04 05:13 | -44.84169 | 140.96009 | 36767 ft | 509 kts | 53° |
| 2026-05-04 05:13 | -44.79902 | 141.03984 | 36767 ft | 509 kts | 53° |
| 2026-05-04 05:14 | -44.75646 | 141.11914 | 36771 ft | 508 kts | 53° |
| 2026-05-04 05:14 | -44.71381 | 141.19848 | 36769 ft | 508 kts | 53° |
| 2026-05-04 05:15 | -44.67129 | 141.27742 | 36772 ft | 507 kts | 53° |
| 2026-05-04 05:15 | -44.62517 | 141.35198 | 36773 ft | 507 kts | 44° |
| 2026-05-04 05:16 | -44.57489 | 141.42124 | 36771 ft | 506 kts | 45° |
| 2026-05-04 05:16 | -44.53336 | 141.47927 | 36773 ft | 506 kts | 45° |
| 2026-05-04 05:17 | -44.48343 | 141.54899 | 36771 ft | 506 kts | 44° |
| 2026-05-04 05:17 | -44.42541 | 141.62969 | 36772 ft | 506 kts | 44° |
| 2026-05-04 05:18 | -44.37546 | 141.69888 | 36774 ft | 505 kts | 44° |
| 2026-05-04 05:18 | -44.33365 | 141.75664 | 36772 ft | 505 kts | 44° |
| 2026-05-04 05:19 | -44.28361 | 141.82559 | 36765 ft | 505 kts | 44° |
| 2026-05-04 05:19 | -44.23351 | 141.89446 | 36767 ft | 505 kts | 44° |
| 2026-05-04 05:20 | -44.18361 | 141.96289 | 36767 ft | 504 kts | 44° |
| 2026-05-04 05:20 | -44.13333 | 142.03165 | 36761 ft | 504 kts | 43° |
| 2026-05-04 05:21 | -44.08342 | 142.09974 | 36762 ft | 504 kts | 43° |
| 2026-05-04 05:21 | -44.03341 | 142.16779 | 36757 ft | 504 kts | 43° |
| 2026-05-04 05:22 | -43.98320 | 142.23595 | 36756 ft | 503 kts | 43° |
| 2026-05-04 05:22 | -43.93319 | 142.30366 | 36775 ft | 503 kts | 43° |
| 2026-05-04 05:23 | -43.88312 | 142.37130 | 36774 ft | 503 kts | 43° |
| 2026-05-04 05:23 | -43.83294 | 142.43891 | 36762 ft | 502 kts | 43° |
| 2026-05-04 05:24 | -43.78283 | 142.50625 | 36773 ft | 502 kts | 43° |
| 2026-05-04 05:24 | -43.73282 | 142.57331 | 36767 ft | 502 kts | 43° |
| 2026-05-04 05:25 | -43.68257 | 142.64051 | 36768 ft | 501 kts | 43° |
| 2026-05-04 05:25 | -43.63249 | 142.70732 | 36764 ft | 501 kts | 42° |
| 2026-05-04 05:26 | -43.58260 | 142.77373 | 36765 ft | 500 kts | 42° |
| 2026-05-04 05:26 | -43.53255 | 142.84018 | 36767 ft | 500 kts | 42° |
| 2026-05-04 05:28 | -43.33190 | 143.10496 | 36762 ft | 499 kts | 42° |
| 2026-05-04 05:29 | -43.28189 | 143.17056 | 36763 ft | 498 kts | 41° |
| 2026-05-04 05:29 | -43.23153 | 143.23646 | 36759 ft | 498 kts | 41° |
| 2026-05-04 05:31 | -43.03119 | 143.49706 | 36767 ft | 497 kts | 41° |
| 2026-05-04 05:32 | -42.98073 | 143.56231 | 36768 ft | 496 kts | 41° |
| 2026-05-04 05:33 | -42.90570 | 143.65906 | 36766 ft | 496 kts | 41° |
| 2026-05-04 05:33 | -42.85566 | 143.72338 | 36767 ft | 495 kts | 41° |
| 2026-05-04 05:34 | -42.80553 | 143.78768 | 36772 ft | 495 kts | 40° |
| 2026-05-04 05:34 | -42.75526 | 143.85200 | 36772 ft | 494 kts | 40° |
| 2026-05-04 05:35 | -42.70518 | 143.91592 | 36769 ft | 494 kts | 40° |
| 2026-05-04 05:35 | -42.65486 | 143.98001 | 36774 ft | 493 kts | 40° |
| 2026-05-04 05:36 | -42.60510 | 144.04324 | 36775 ft | 493 kts | 40° |
| 2026-05-04 05:36 | -42.55487 | 144.10692 | 36773 ft | 492 kts | 40° |
| 2026-05-04 05:37 | -42.50494 | 144.17006 | 36771 ft | 492 kts | 40° |
| 2026-05-04 05:37 | -42.45468 | 144.23350 | 36776 ft | 491 kts | 40° |
| 2026-05-04 05:38 | -42.37981 | 144.32770 | 36772 ft | 491 kts | 39° |
| 2026-05-04 05:38 | -42.33007 | 144.39010 | 36783 ft | 490 kts | 39° |
| 2026-05-04 05:39 | -42.25480 | 144.48429 | 36790 ft | 489 kts | 39° |
| 2026-05-04 05:40 | -42.18016 | 144.57735 | 36786 ft | 488 kts | 39° |
| 2026-05-04 05:40 | -42.13036 | 144.63929 | 36782 ft | 488 kts | 39° |
| 2026-05-04 05:41 | -42.08038 | 144.70129 | 36785 ft | 487 kts | 39° |
| 2026-05-04 05:41 | -42.03039 | 144.76317 | 36787 ft | 487 kts | 39° |
| 2026-05-04 05:42 | -41.98056 | 144.82472 | 36784 ft | 486 kts | 39° |
| 2026-05-04 05:42 | -41.93078 | 144.88606 | 36781 ft | 486 kts | 38° |
| 2026-05-04 05:43 | -41.88103 | 144.94723 | 36781 ft | 485 kts | 38° |
| 2026-05-04 05:45 | -41.68191 | 145.19073 | 36802 ft | 484 kts | 38° |
| 2026-05-04 05:47 | -41.48252 | 145.43245 | 36813 ft | 483 kts | 37° |
| 2026-05-04 05:47 | -41.43269 | 145.49252 | 36820 ft | 482 kts | 37° |
| 2026-05-04 05:48 | -41.38295 | 145.55236 | 36831 ft | 482 kts | 37° |
| 2026-05-04 05:48 | -41.33336 | 145.61188 | 36835 ft | 482 kts | 37° |
| 2026-05-04 05:49 | -41.28332 | 145.67183 | 36832 ft | 481 kts | 36° |
| 2026-05-04 05:49 | -41.23398 | 145.73080 | 36845 ft | 481 kts | 36° |
| 2026-05-04 05:51 | -41.03485 | 145.96757 | 36843 ft | 479 kts | 36° |
| 2026-05-04 05:52 | -40.98545 | 146.02600 | 36845 ft | 478 kts | 36° |
| 2026-05-04 05:52 | -40.93555 | 146.08489 | 36841 ft | 478 kts | 36° |
| 2026-05-04 05:54 | -40.73524 | 146.31418 | 36841 ft | 471 kts | 30° |
| 2026-05-04 05:55 | -40.68258 | 146.36558 | 36850 ft | 472 kts | 31° |
| 2026-05-04 05:55 | -40.62991 | 146.41742 | 36843 ft | 471 kts | 30° |
| 2026-05-04 05:56 | -40.57762 | 146.46864 | 36836 ft | 471 kts | 30° |
| 2026-05-04 05:56 | -40.52492 | 146.52009 | 36839 ft | 471 kts | 30° |
| 2026-05-04 05:57 | -40.47200 | 146.57163 | 36838 ft | 471 kts | 30° |
| 2026-05-04 05:57 | -40.42837 | 146.61405 | 36844 ft | 470 kts | 30° |
| 2026-05-04 05:58 | -40.36707 | 146.67353 | 36854 ft | 470 kts | 30° |
| 2026-05-04 05:58 | -40.32328 | 146.71593 | 36854 ft | 470 kts | 30° |
| 2026-05-04 05:59 | -40.27054 | 146.76691 | 36860 ft | 469 kts | 30° |
| 2026-05-04 05:59 | -40.21820 | 146.81741 | 36862 ft | 469 kts | 30° |
| 2026-05-04 06:00 | -40.16562 | 146.86804 | 36872 ft | 469 kts | 30° |
| 2026-05-04 06:00 | -40.11308 | 146.91852 | 36870 ft | 469 kts | 30° |
| 2026-05-04 06:01 | -40.06077 | 146.96869 | 36866 ft | 468 kts | 30° |
| 2026-05-04 06:03 | -39.85106 | 147.16884 | 36873 ft | 467 kts | 29° |
| 2026-05-04 06:05 | -39.61477 | 147.39250 | 36877 ft | 466 kts | 28° |
| 2026-05-04 06:06 | -39.56255 | 147.44167 | 36877 ft | 466 kts | 28° |
| 2026-05-04 06:06 | -39.51004 | 147.49102 | 36879 ft | 466 kts | 28° |
| 2026-05-04 06:07 | -39.45741 | 147.54039 | 36879 ft | 466 kts | 28° |
| 2026-05-04 06:07 | -39.40484 | 147.58960 | 36878 ft | 466 kts | 28° |
| 2026-05-04 06:08 | -39.35237 | 147.63864 | 36875 ft | 466 kts | 28° |
| 2026-05-04 06:08 | -39.30019 | 147.68730 | 36881 ft | 466 kts | 28° |
| 2026-05-04 06:09 | -39.24733 | 147.73652 | 36881 ft | 466 kts | 28° |
| 2026-05-04 06:11 | -39.03663 | 147.93173 | 36894 ft | 466 kts | 28° |
| 2026-05-04 06:13 | -38.82570 | 148.12571 | 36902 ft | 467 kts | 27° |
| 2026-05-04 06:14 | -38.65324 | 148.20795 | 36904 ft | 440 kts | 3° |
| 2026-05-04 06:14 | -38.62289 | 148.21510 | 36905 ft | 442 kts | 5° |
| 2026-05-04 06:15 | -38.56318 | 148.23286 | 36906 ft | 444 kts | 7° |
| 2026-05-04 06:15 | -38.50278 | 148.25220 | 36910 ft | 445 kts | 7° |
| 2026-05-04 06:16 | -38.44317 | 148.27124 | 36907 ft | 445 kts | 7° |
| 2026-05-04 06:16 | -38.38267 | 148.29046 | 36917 ft | 445 kts | 7° |
| 2026-05-04 06:17 | -38.32276 | 148.30943 | 36912 ft | 445 kts | 7° |
| 2026-05-04 06:17 | -38.26271 | 148.32843 | 36918 ft | 445 kts | 7° |
| 2026-05-04 06:18 | -38.20255 | 148.34742 | 36914 ft | 446 kts | 7° |
| 2026-05-04 06:20 | -37.96202 | 148.42305 | 36924 ft | 446 kts | 7° |
| 2026-05-04 06:21 | -37.81119 | 148.47021 | 36923 ft | 446 kts | 7° |
| 2026-05-04 06:22 | -37.75090 | 148.48901 | 36927 ft | 446 kts | 7° |
| 2026-05-04 06:25 | -37.32962 | 148.61947 | 36939 ft | 445 kts | 6° |
| 2026-05-04 06:26 | -37.26957 | 148.63796 | 36939 ft | 445 kts | 6° |
| 2026-05-04 06:26 | -37.20940 | 148.65641 | 36937 ft | 445 kts | 6° |
| 2026-05-04 06:27 | -37.05883 | 148.70253 | 36930 ft | 446 kts | 6° |
| 2026-05-04 06:28 | -36.99859 | 148.72093 | 36924 ft | 446 kts | 6° |
| 2026-05-04 06:28 | -36.93914 | 148.73905 | 36932 ft | 447 kts | 6° |
| 2026-05-04 06:29 | -36.87881 | 148.75741 | 36929 ft | 448 kts | 6° |
| 2026-05-04 06:29 | -36.81783 | 148.77593 | 36932 ft | 449 kts | 6° |
| 2026-05-04 06:30 | -36.75728 | 148.79431 | 36934 ft | 450 kts | 6° |
| 2026-05-04 06:30 | -36.69625 | 148.81280 | 36940 ft | 451 kts | 6° |
| 2026-05-04 06:31 | -36.63541 | 148.83119 | 36943 ft | 452 kts | 6° |
| 2026-05-04 06:31 | -36.57384 | 148.84979 | 36945 ft | 453 kts | 6° |
| 2026-05-04 06:33 | -36.32812 | 148.92367 | 36955 ft | 455 kts | 6° |
| 2026-05-04 06:34 | -36.26667 | 148.94208 | 36954 ft | 456 kts | 6° |
| 2026-05-04 06:34 | -36.20515 | 148.96046 | 36957 ft | 456 kts | 6° |
| 2026-05-04 06:36 | -35.95788 | 149.03408 | 36966 ft | 458 kts | 5° |
| 2026-05-04 06:37 | -35.89545 | 149.05260 | 36970 ft | 459 kts | 5° |
| 2026-05-04 06:37 | -35.83447 | 149.07067 | 36978 ft | 460 kts | 5° |
| 2026-05-04 06:38 | -35.77217 | 149.08908 | 36974 ft | 461 kts | 5° |
| 2026-05-04 06:40 | -35.53267 | 149.15961 | 37022 ft | 463 kts | 5° |
| 2026-05-04 06:40 | -35.47007 | 149.17797 | 37034 ft | 463 kts | 5° |
| 2026-05-04 06:41 | -35.40704 | 149.19642 | 37047 ft | 463 kts | 5° |
| 2026-05-04 06:41 | -35.34441 | 149.21474 | 37051 ft | 464 kts | 5° |
| 2026-05-04 06:42 | -35.28136 | 149.23315 | 37053 ft | 464 kts | 5° |
| 2026-05-04 06:44 | -35.03176 | 149.30576 | 36242 ft | 456 kts | 5° |
| 2026-05-04 06:44 | -35.00035 | 149.31484 | 35974 ft | 456 kts | 5° |
| 2026-05-04 06:44 | -34.96973 | 149.32369 | 35720 ft | 456 kts | 5° |
| 2026-05-04 06:45 | -34.93840 | 149.33274 | 35478 ft | 456 kts | 5° |
| 2026-05-04 06:45 | -34.90800 | 149.34153 | 35237 ft | 456 kts | 5° |
| 2026-05-04 06:45 | -34.87719 | 149.35044 | 34992 ft | 455 kts | 5° |
| 2026-05-04 06:45 | -34.84640 | 149.35933 | 34756 ft | 455 kts | 5° |
| 2026-05-04 06:46 | -34.81604 | 149.36809 | 34528 ft | 455 kts | 5° |
| 2026-05-04 06:46 | -34.78506 | 149.37934 | 34273 ft | 464 kts | 14° |
| 2026-05-04 06:46 | -34.75592 | 149.39780 | 33703 ft | 476 kts | 25° |
| 2026-05-04 06:46 | -34.73012 | 149.42327 | 33175 ft | 485 kts | 37° |
| 2026-05-04 06:48 | -34.61261 | 149.68177 | 33010 ft | 502 kts | 54° |
| 2026-05-04 06:48 | -34.59635 | 149.71882 | 33012 ft | 502 kts | 54° |
| 2026-05-04 06:50 | -34.46402 | 150.01886 | 33002 ft | 506 kts | 54° |
| 2026-05-04 06:51 | -34.43049 | 150.09449 | 33003 ft | 505 kts | 54° |
| 2026-05-04 06:51 | -34.39728 | 150.16928 | 32501 ft | 500 kts | 54° |
| 2026-05-04 06:52 | -34.38106 | 150.20573 | 31998 ft | 494 kts | 54° |
| 2026-05-04 06:52 | -34.36480 | 150.24229 | 31474 ft | 487 kts | 54° |
| 2026-05-04 06:52 | -34.34899 | 150.27776 | 30929 ft | 480 kts | 54° |
| 2026-05-04 06:52 | -34.33302 | 150.31356 | 30220 ft | 473 kts | 55° |
| 2026-05-04 06:53 | -34.31768 | 150.34792 | 29471 ft | 465 kts | 55° |
| 2026-05-04 06:53 | -34.30220 | 150.38252 | 28550 ft | 461 kts | 54° |
| 2026-05-04 06:53 | -34.28701 | 150.41644 | 27699 ft | 456 kts | 54° |
| 2026-05-04 06:53 | -34.27218 | 150.44954 | 26865 ft | 451 kts | 55° |
| 2026-05-04 06:54 | -34.25717 | 150.48310 | 26039 ft | 447 kts | 55° |
| 2026-05-04 06:54 | -34.24258 | 150.51573 | 25251 ft | 442 kts | 55° |
| 2026-05-04 06:54 | -34.22791 | 150.54850 | 24439 ft | 439 kts | 55° |
| 2026-05-04 06:54 | -34.21353 | 150.58058 | 23684 ft | 435 kts | 55° |
| 2026-05-04 06:55 | -34.19917 | 150.61260 | 22872 ft | 430 kts | 55° |
| 2026-05-04 06:55 | -34.18574 | 150.64253 | 22165 ft | 424 kts | 55° |
| 2026-05-04 06:55 | -34.17159 | 150.67404 | 21387 ft | 417 kts | 55° |
| 2026-05-04 06:55 | -34.15797 | 150.70433 | 20665 ft | 411 kts | 55° |
| 2026-05-04 06:56 | -34.14452 | 150.73421 | 19923 ft | 405 kts | 55° |
| 2026-05-04 06:57 | -34.05477 | 150.93334 | 14684 ft | 367 kts | 56° |
| 2026-05-04 06:58 | -34.04285 | 150.96021 | 13938 ft | 363 kts | 60° |
| 2026-05-04 06:58 | -34.03602 | 150.98970 | 13100 ft | 371 kts | 81° |
| 2026-05-04 06:58 | -34.03784 | 151.02083 | 12312 ft | 375 kts | 102° |
| 2026-05-04 06:58 | -34.04821 | 151.04946 | 11567 ft | 374 kts | 123° |
| 2026-05-04 06:59 | -34.06599 | 151.07259 | 10765 ft | 373 kts | 144° |
| 2026-05-04 06:59 | -34.08860 | 151.08625 | 10317 ft | 357 kts | 167° |
| 2026-05-04 06:59 | -34.11237 | 151.09029 | 10128 ft | 333 kts | 179° |
| 2026-05-04 06:59 | -34.13486 | 151.09292 | 9873 ft | 318 kts | 175° |
| 2026-05-04 07:01 | -34.28164 | 151.12943 | 6311 ft | 298 kts | 169° |
| 2026-05-04 07:01 | -34.30033 | 151.13809 | 5887 ft | 301 kts | 149° |
| 2026-05-04 07:02 | -34.31627 | 151.15459 | 5522 ft | 299 kts | 129° |
| 2026-05-04 07:02 | -34.32586 | 151.17624 | 5187 ft | 293 kts | 104° |
| 2026-05-04 07:02 | -34.32752 | 151.20034 | 4825 ft | 285 kts | 77° |
| 2026-05-04 07:02 | -34.32075 | 151.22234 | 4445 ft | 274 kts | 51° |
| 2026-05-04 07:03 | -34.30720 | 151.23726 | 4291 ft | 252 kts | 24° |
| 2026-05-04 07:03 | -34.29235 | 151.24656 | 4211 ft | 239 kts | 22° |
| 2026-05-04 07:03 | -34.27787 | 151.25597 | 4136 ft | 229 kts | 23° |
| 2026-05-04 07:03 | -34.26419 | 151.26480 | 4073 ft | 218 kts | 19° |
| 2026-05-04 07:04 | -34.25016 | 151.26832 | 3989 ft | 198 kts | 356° |
| 2026-05-04 07:04 | -34.23767 | 151.26491 | 3890 ft | 173 kts | 332° |
| 2026-05-04 07:04 | -34.22769 | 151.25819 | 3479 ft | 159 kts | 330° |
| 2026-05-04 07:04 | -34.21788 | 151.25172 | 3090 ft | 163 kts | 331° |
| 2026-05-04 07:05 | -34.20790 | 151.24589 | 2982 ft | 157 kts | 337° |
| 2026-05-04 07:05 | -34.19768 | 151.24194 | 2988 ft | 152 kts | 342° |
| 2026-05-04 07:05 | -34.18719 | 151.23887 | 2987 ft | 155 kts | 345° |
| 2026-05-04 07:05 | -34.17658 | 151.23608 | 2987 ft | 157 kts | 345° |
| 2026-05-04 07:06 | -34.15565 | 151.23058 | 2992 ft | 155 kts | 346° |
| 2026-05-04 07:06 | -34.14492 | 151.22779 | 2991 ft | 157 kts | 345° |
| 2026-05-04 07:06 | -34.13424 | 151.22499 | 2991 ft | 157 kts | 345° |
| 2026-05-04 07:07 | -34.12386 | 151.22227 | 2996 ft | 154 kts | 346° |
| 2026-05-04 07:08 | -34.06237 | 151.20622 | 1989 ft | 123 kts | 346° |
| 2026-05-04 07:09 | -34.05371 | 151.20394 | 1822 ft | 127 kts | 347° |
| 2026-05-04 07:09 | -34.04526 | 151.20175 | 1656 ft | 125 kts | 348° |
| 2026-05-04 07:09 | -34.03670 | 151.19953 | 1475 ft | 125 kts | 349° |
| 2026-05-04 07:09 | -34.02787 | 151.19721 | 1317 ft | 133 kts | 347° |
| 2026-05-04 07:10 | -34.01881 | 151.19480 | 1143 ft | 130 kts | 350° |
| 2026-05-04 07:10 | -34.00988 | 151.19257 | 962 ft | 132 kts | 350° |
| 2026-05-04 07:12 | -33.95182 | 151.17742 | 33 ft | 41 kts | 347° |